MSR995 HECA-CYYZ
Flight info
| Callsign | MSR995 |
|---|---|
| Flight time | 11h 10m |
| Altitude | 32000 |
| Route | CVO L617 NOZ L551 ANTAR UW54 RDS UL609 MES UG18 FSK UL608 DISOR DCT LONTA UL608 DOLEV DCT MITNO DCT DOBOT DCT INSEL DCT BIRGI DCT KUNOD/N0487F340 DCT LIRSU DCT BUB L608 DENUT L610 RAPIX DCT LESTA UP6 RODOL UL28 PENIL M144 BAGSO DCT RESNO/M084F340 DCT 56N020W 56N030W 57N040W 57N050W DCT HOIST/N0481F340 DCT YBC/N0494F360 DCT POLTY IMEBA9 |
| Aircraft | B77W/H-SDE1E2E3FGHIJ2J3J4J5M1RWXY/LB1D1 |
Departure
| Time | 2026-05-07 00:09 |
|---|---|
| Airport | Cairo International Airport (HECA) |
Arrival
| Time | 2026-05-07 11:19 |
|---|---|
| Airport | Toronto Pearson International Airport (CYYZ) |
| Time | Latitude | Longitude | Altitude | Speed | Heading |
|---|---|---|---|---|---|
| 2026-05-06 23:39 | 30.10781 | 31.39876 | 375 ft | 0 kts | 76° |
| 2026-05-07 00:00 | 30.10778 | 31.39860 | 378 ft | 4 kts | 80° |
| 2026-05-07 00:00 | 30.10775 | 31.39829 | 376 ft | 4 kts | 92° |
| 2026-05-07 00:01 | 30.10778 | 31.39798 | 374 ft | 4 kts | 110° |
| 2026-05-07 00:01 | 30.10791 | 31.39773 | 376 ft | 4 kts | 146° |
| 2026-05-07 00:01 | 30.10801 | 31.39767 | 377 ft | 0 kts | 165° |
| 2026-05-07 00:04 | 30.10787 | 31.39771 | 376 ft | 5 kts | 167° |
| 2026-05-07 00:04 | 30.10735 | 31.39784 | 380 ft | 10 kts | 167° |
| 2026-05-07 00:04 | 30.10669 | 31.39804 | 376 ft | 11 kts | 165° |
| 2026-05-07 00:04 | 30.10585 | 31.39831 | 378 ft | 14 kts | 164° |
| 2026-05-07 00:05 | 30.10491 | 31.39861 | 381 ft | 14 kts | 164° |
| 2026-05-07 00:05 | 30.10400 | 31.39846 | 385 ft | 14 kts | 221° |
| 2026-05-07 00:05 | 30.10322 | 31.39746 | 388 ft | 19 kts | 227° |
| 2026-05-07 00:05 | 30.10236 | 31.39633 | 392 ft | 19 kts | 229° |
| 2026-05-07 00:06 | 30.10143 | 31.39580 | 390 ft | 16 kts | 163° |
| 2026-05-07 00:06 | 30.10055 | 31.39655 | 393 ft | 16 kts | 137° |
| 2026-05-07 00:06 | 30.10002 | 31.39762 | 393 ft | 16 kts | 96° |
| 2026-05-07 00:06 | 30.10015 | 31.39886 | 393 ft | 16 kts | 63° |
| 2026-05-07 00:07 | 30.10033 | 31.39915 | 393 ft | 0 kts | 50° |
| 2026-05-07 00:08 | 30.10041 | 31.39926 | 393 ft | 9 kts | 50° |
| 2026-05-07 00:08 | 30.10157 | 31.40083 | 393 ft | 52 kts | 49° |
| 2026-05-07 00:08 | 30.10529 | 31.40579 | 391 ft | 104 kts | 49° |
| 2026-05-07 00:09 | 30.11121 | 31.41363 | 393 ft | 154 kts | 49° |
| 2026-05-07 00:09 | 30.11924 | 31.42417 | 397 ft | 192 kts | 48° |
| 2026-05-07 00:09 | 30.12805 | 31.43597 | 825 ft | 195 kts | 49° |
| 2026-05-07 00:09 | 30.13696 | 31.44784 | 1420 ft | 193 kts | 49° |
| 2026-05-07 00:10 | 30.14673 | 31.45815 | 1848 ft | 194 kts | 22° |
| 2026-05-07 00:10 | 30.16027 | 31.45857 | 2025 ft | 209 kts | 339° |
| 2026-05-07 00:10 | 30.17132 | 31.44698 | 2139 ft | 231 kts | 297° |
| 2026-05-07 00:10 | 30.17369 | 31.42799 | 2238 ft | 254 kts | 258° |
| 2026-05-07 00:11 | 30.16591 | 31.40923 | 2447 ft | 266 kts | 238° |
| 2026-05-07 00:11 | 30.15891 | 31.38943 | 2785 ft | 270 kts | 266° |
| 2026-05-07 00:11 | 30.16081 | 31.36830 | 3358 ft | 263 kts | 292° |
| 2026-05-07 00:11 | 30.16816 | 31.34924 | 3917 ft | 259 kts | 307° |
| 2026-05-07 00:12 | 30.17967 | 31.33348 | 4453 ft | 257 kts | 313° |
| 2026-05-07 00:12 | 30.19144 | 31.31775 | 5043 ft | 259 kts | 311° |
| 2026-05-07 00:12 | 30.20318 | 31.30181 | 5605 ft | 262 kts | 312° |
| 2026-05-07 00:12 | 30.21509 | 31.28565 | 6015 ft | 266 kts | 312° |
| 2026-05-07 00:13 | 30.22718 | 31.26928 | 5981 ft | 268 kts | 312° |
| 2026-05-07 00:13 | 30.23925 | 31.25296 | 6100 ft | 266 kts | 312° |
| 2026-05-07 00:13 | 30.25105 | 31.23700 | 6635 ft | 266 kts | 312° |
| 2026-05-07 00:13 | 30.26331 | 31.22044 | 7150 ft | 268 kts | 312° |
| 2026-05-07 00:14 | 30.27536 | 31.20416 | 7654 ft | 271 kts | 312° |
| 2026-05-07 00:14 | 30.28768 | 31.18751 | 8172 ft | 273 kts | 311° |
| 2026-05-07 00:14 | 30.30012 | 31.17068 | 8700 ft | 276 kts | 311° |
| 2026-05-07 00:14 | 30.31267 | 31.15370 | 9217 ft | 278 kts | 311° |
| 2026-05-07 00:15 | 30.32529 | 31.13662 | 9764 ft | 280 kts | 311° |
| 2026-05-07 00:15 | 30.33800 | 31.11941 | 10247 ft | 283 kts | 310° |
| 2026-05-07 00:15 | 30.35104 | 31.10175 | 10448 ft | 298 kts | 310° |
| 2026-05-07 00:15 | 30.36492 | 31.08294 | 10581 ft | 315 kts | 310° |
| 2026-05-07 00:16 | 30.37960 | 31.06304 | 10739 ft | 334 kts | 310° |
| 2026-05-07 00:16 | 30.39507 | 31.04205 | 10868 ft | 352 kts | 310° |
| 2026-05-07 00:16 | 30.41124 | 31.02010 | 11215 ft | 363 kts | 310° |
| 2026-05-07 00:16 | 30.42777 | 30.99765 | 11713 ft | 370 kts | 310° |
| 2026-05-07 00:17 | 30.44461 | 30.97477 | 12384 ft | 373 kts | 310° |
| 2026-05-07 00:17 | 30.46143 | 30.95189 | 13134 ft | 375 kts | 310° |
| 2026-05-07 00:17 | 30.47844 | 30.92876 | 13832 ft | 378 kts | 310° |
| 2026-05-07 00:17 | 30.49537 | 30.90571 | 14429 ft | 382 kts | 310° |
| 2026-05-07 00:18 | 30.51268 | 30.88214 | 15067 ft | 385 kts | 310° |
| 2026-05-07 00:18 | 30.53014 | 30.85834 | 15734 ft | 388 kts | 310° |
| 2026-05-07 00:18 | 30.54770 | 30.83439 | 16385 ft | 391 kts | 310° |
| 2026-05-07 00:18 | 30.56536 | 30.81029 | 17001 ft | 395 kts | 309° |
| 2026-05-07 00:19 | 30.58326 | 30.78585 | 17621 ft | 398 kts | 309° |
| 2026-05-07 00:19 | 30.60127 | 30.76125 | 18232 ft | 402 kts | 309° |
| 2026-05-07 00:19 | 30.61946 | 30.73638 | 18772 ft | 405 kts | 309° |
| 2026-05-07 00:19 | 30.63776 | 30.71135 | 19317 ft | 409 kts | 309° |
| 2026-05-07 00:20 | 30.65623 | 30.68606 | 19833 ft | 412 kts | 309° |
| 2026-05-07 00:20 | 30.67485 | 30.66056 | 20358 ft | 416 kts | 309° |
| 2026-05-07 00:20 | 30.69361 | 30.63485 | 20866 ft | 419 kts | 309° |
| 2026-05-07 00:20 | 30.71255 | 30.60887 | 21389 ft | 422 kts | 309° |
| 2026-05-07 00:21 | 30.72520 | 30.59151 | 21728 ft | 425 kts | 309° |
| 2026-05-07 00:21 | 30.74431 | 30.56528 | 22227 ft | 428 kts | 309° |
| 2026-05-07 00:21 | 30.76366 | 30.53869 | 22719 ft | 431 kts | 309° |
| 2026-05-07 00:21 | 30.78309 | 30.51198 | 23200 ft | 435 kts | 309° |
| 2026-05-07 00:22 | 30.80270 | 30.48500 | 23677 ft | 438 kts | 309° |
| 2026-05-07 00:22 | 30.82244 | 30.45783 | 24072 ft | 441 kts | 309° |
| 2026-05-07 00:22 | 30.84227 | 30.43050 | 24506 ft | 444 kts | 309° |
| 2026-05-07 00:22 | 30.86224 | 30.40297 | 24911 ft | 446 kts | 309° |
| 2026-05-07 00:23 | 30.88231 | 30.37528 | 25327 ft | 448 kts | 309° |
| 2026-05-07 00:23 | 30.90244 | 30.34748 | 25770 ft | 449 kts | 309° |
| 2026-05-07 00:23 | 30.92262 | 30.31961 | 26194 ft | 451 kts | 309° |
| 2026-05-07 00:23 | 30.94290 | 30.29156 | 26552 ft | 454 kts | 309° |
| 2026-05-07 00:24 | 30.96328 | 30.26336 | 26896 ft | 457 kts | 309° |
| 2026-05-07 00:24 | 30.98387 | 30.23486 | 27249 ft | 460 kts | 309° |
| 2026-05-07 00:24 | 31.00448 | 30.20629 | 27604 ft | 462 kts | 309° |
| 2026-05-07 00:24 | 31.02523 | 30.17751 | 27960 ft | 465 kts | 309° |
| 2026-05-07 00:25 | 31.04610 | 30.14855 | 28289 ft | 467 kts | 309° |
| 2026-05-07 00:25 | 31.06704 | 30.11946 | 28605 ft | 469 kts | 309° |
| 2026-05-07 00:25 | 31.08810 | 30.09019 | 28900 ft | 472 kts | 309° |
| 2026-05-07 00:25 | 31.10919 | 30.06085 | 29197 ft | 474 kts | 309° |
| 2026-05-07 00:26 | 31.13042 | 30.03130 | 29481 ft | 476 kts | 309° |
| 2026-05-07 00:26 | 31.15174 | 30.00163 | 29750 ft | 478 kts | 310° |
| 2026-05-07 00:26 | 31.17461 | 29.97339 | 30059 ft | 479 kts | 317° |
| 2026-05-07 00:26 | 31.20009 | 29.94844 | 30408 ft | 478 kts | 322° |
| 2026-05-07 00:27 | 31.22686 | 29.92641 | 30758 ft | 476 kts | 327° |
| 2026-05-07 00:27 | 31.25567 | 29.90739 | 31101 ft | 475 kts | 330° |
| 2026-05-07 00:27 | 31.28489 | 29.88939 | 31439 ft | 474 kts | 331° |
| 2026-05-07 00:27 | 31.31410 | 29.87154 | 31723 ft | 473 kts | 331° |
| 2026-05-07 00:28 | 31.34363 | 29.85344 | 31992 ft | 473 kts | 331° |
| 2026-05-07 00:28 | 31.37250 | 29.83561 | 32047 ft | 477 kts | 330° |
| 2026-05-07 00:28 | 31.40220 | 29.81715 | 32303 ft | 476 kts | 330° |
| 2026-05-07 00:28 | 31.43085 | 29.79925 | 32687 ft | 472 kts | 330° |
| 2026-05-07 00:29 | 31.46011 | 29.78091 | 33060 ft | 469 kts | 330° |
| 2026-05-07 00:29 | 31.48846 | 29.76311 | 33262 ft | 470 kts | 330° |
| 2026-05-07 00:30 | 31.57516 | 29.70859 | 33807 ft | 471 kts | 330° |
| 2026-05-07 00:30 | 31.60403 | 29.69042 | 34004 ft | 471 kts | 330° |
| 2026-05-07 00:30 | 31.66198 | 29.65391 | 34106 ft | 473 kts | 330° |
| 2026-05-07 00:31 | 31.71958 | 29.61759 | 34103 ft | 468 kts | 330° |
| 2026-05-07 00:31 | 31.77694 | 29.58135 | 34112 ft | 469 kts | 330° |
| 2026-05-07 00:32 | 31.83450 | 29.54492 | 34121 ft | 471 kts | 330° |
| 2026-05-07 00:32 | 31.89229 | 29.50831 | 34109 ft | 472 kts | 330° |
| 2026-05-07 00:33 | 31.95016 | 29.47159 | 34107 ft | 473 kts | 330° |
| 2026-05-07 00:33 | 32.00802 | 29.43483 | 34107 ft | 472 kts | 330° |
| 2026-05-07 00:34 | 32.06583 | 29.39794 | 34105 ft | 472 kts | 330° |
| 2026-05-07 00:34 | 32.12350 | 29.36102 | 34116 ft | 471 kts | 330° |
| 2026-05-07 00:35 | 32.18099 | 29.32419 | 34099 ft | 470 kts | 330° |
| 2026-05-07 00:35 | 32.23795 | 29.28767 | 34110 ft | 469 kts | 330° |
| 2026-05-07 00:36 | 32.29528 | 29.25096 | 34110 ft | 468 kts | 330° |
| 2026-05-07 00:36 | 32.35253 | 29.21424 | 34107 ft | 468 kts | 330° |
| 2026-05-07 00:37 | 32.40964 | 29.17755 | 34114 ft | 467 kts | 330° |
| 2026-05-07 00:37 | 32.46679 | 29.14077 | 34108 ft | 467 kts | 330° |
| 2026-05-07 00:38 | 32.52387 | 29.10397 | 34110 ft | 467 kts | 330° |
| 2026-05-07 00:38 | 32.58098 | 29.06711 | 34109 ft | 468 kts | 330° |
| 2026-05-07 00:39 | 32.63815 | 29.03015 | 34109 ft | 468 kts | 330° |
| 2026-05-07 00:39 | 32.69528 | 28.99317 | 34122 ft | 468 kts | 330° |
| 2026-05-07 00:40 | 32.75241 | 28.95613 | 34109 ft | 467 kts | 330° |
| 2026-05-07 00:40 | 32.80944 | 28.91911 | 34110 ft | 467 kts | 330° |
| 2026-05-07 00:41 | 32.86638 | 28.88208 | 34114 ft | 466 kts | 330° |
| 2026-05-07 00:41 | 32.92322 | 28.84507 | 34114 ft | 466 kts | 330° |
| 2026-05-07 00:42 | 32.98004 | 28.80801 | 34122 ft | 465 kts | 330° |
| 2026-05-07 00:42 | 33.03677 | 28.77096 | 34110 ft | 465 kts | 330° |
| 2026-05-07 00:43 | 33.09340 | 28.73392 | 34110 ft | 464 kts | 330° |
| 2026-05-07 00:43 | 33.14993 | 28.69689 | 34111 ft | 463 kts | 330° |
| 2026-05-07 00:44 | 33.20638 | 28.65985 | 34113 ft | 463 kts | 330° |
| 2026-05-07 00:44 | 33.26293 | 28.62270 | 34125 ft | 464 kts | 330° |
| 2026-05-07 00:45 | 33.31911 | 28.58573 | 34114 ft | 464 kts | 330° |
| 2026-05-07 00:45 | 33.37562 | 28.54849 | 34115 ft | 465 kts | 330° |
| 2026-05-07 00:46 | 33.43269 | 28.51083 | 34115 ft | 465 kts | 330° |
| 2026-05-07 00:46 | 33.48893 | 28.47366 | 34114 ft | 465 kts | 330° |
| 2026-05-07 00:47 | 33.54590 | 28.43594 | 34123 ft | 465 kts | 330° |
| 2026-05-07 00:47 | 33.60211 | 28.39867 | 34112 ft | 464 kts | 330° |
| 2026-05-07 00:48 | 33.65851 | 28.36122 | 34113 ft | 463 kts | 330° |
| 2026-05-07 00:48 | 33.71492 | 28.32370 | 34117 ft | 463 kts | 330° |
| 2026-05-07 00:49 | 33.77172 | 28.28725 | 34110 ft | 464 kts | 336° |
| 2026-05-07 00:49 | 33.83365 | 28.26540 | 34121 ft | 466 kts | 348° |
| 2026-05-07 00:50 | 33.89843 | 28.25871 | 34119 ft | 468 kts | 355° |
| 2026-05-07 00:50 | 33.96340 | 28.25484 | 34115 ft | 468 kts | 355° |
| 2026-05-07 00:51 | 34.02840 | 28.25070 | 34114 ft | 467 kts | 354° |
| 2026-05-07 00:51 | 34.09330 | 28.24620 | 34117 ft | 467 kts | 354° |
| 2026-05-07 00:52 | 34.15807 | 28.24158 | 34111 ft | 466 kts | 354° |
| 2026-05-07 00:52 | 34.22274 | 28.23694 | 34110 ft | 465 kts | 354° |
| 2026-05-07 00:53 | 34.28726 | 28.23232 | 34125 ft | 464 kts | 354° |
| 2026-05-07 00:53 | 34.35168 | 28.22771 | 34108 ft | 463 kts | 354° |
| 2026-05-07 00:54 | 34.41586 | 28.22311 | 34116 ft | 462 kts | 354° |
| 2026-05-07 00:54 | 34.47995 | 28.21851 | 34112 ft | 461 kts | 354° |
| 2026-05-07 00:55 | 34.54393 | 28.21391 | 34122 ft | 460 kts | 354° |
| 2026-05-07 00:55 | 34.60775 | 28.20932 | 34114 ft | 459 kts | 354° |
| 2026-05-07 00:56 | 34.67146 | 28.20472 | 34113 ft | 458 kts | 354° |
| 2026-05-07 00:56 | 34.73508 | 28.20013 | 34122 ft | 458 kts | 354° |
| 2026-05-07 00:57 | 34.79856 | 28.19553 | 34114 ft | 457 kts | 354° |
| 2026-05-07 00:57 | 34.86164 | 28.19096 | 34110 ft | 456 kts | 354° |
| 2026-05-07 00:58 | 34.92494 | 28.18637 | 34111 ft | 456 kts | 354° |
| 2026-05-07 00:58 | 34.98825 | 28.18177 | 34112 ft | 455 kts | 354° |
| 2026-05-07 00:59 | 35.08319 | 28.17485 | 34113 ft | 456 kts | 354° |
| 2026-05-07 01:00 | 35.14649 | 28.17023 | 34115 ft | 456 kts | 354° |
| 2026-05-07 01:00 | 35.20986 | 28.16560 | 34124 ft | 456 kts | 354° |
| 2026-05-07 01:01 | 35.27326 | 28.16097 | 34116 ft | 456 kts | 354° |
| 2026-05-07 01:01 | 35.33658 | 28.15633 | 34116 ft | 456 kts | 354° |
| 2026-05-07 01:02 | 35.39949 | 28.15171 | 34102 ft | 456 kts | 354° |
| 2026-05-07 01:02 | 35.46273 | 28.14706 | 34109 ft | 455 kts | 354° |
| 2026-05-07 01:03 | 35.52597 | 28.14240 | 34119 ft | 455 kts | 354° |
| 2026-05-07 01:03 | 35.58918 | 28.13774 | 34108 ft | 455 kts | 354° |
| 2026-05-07 01:04 | 35.65231 | 28.13309 | 34115 ft | 455 kts | 354° |
| 2026-05-07 01:04 | 35.71547 | 28.12844 | 34108 ft | 455 kts | 354° |
| 2026-05-07 01:05 | 35.77869 | 28.12377 | 34111 ft | 455 kts | 354° |
| 2026-05-07 01:05 | 35.84186 | 28.11910 | 34110 ft | 455 kts | 354° |
| 2026-05-07 01:06 | 35.90512 | 28.11442 | 34117 ft | 455 kts | 354° |
| 2026-05-07 01:06 | 35.96795 | 28.10976 | 34113 ft | 455 kts | 354° |
| 2026-05-07 01:07 | 36.03115 | 28.10506 | 34110 ft | 455 kts | 354° |
| 2026-05-07 01:07 | 36.09440 | 28.10035 | 34106 ft | 455 kts | 354° |
| 2026-05-07 01:08 | 36.15773 | 28.09563 | 34111 ft | 456 kts | 354° |
| 2026-05-07 01:08 | 36.22104 | 28.09090 | 34106 ft | 456 kts | 354° |
| 2026-05-07 01:09 | 36.28440 | 28.08615 | 34098 ft | 455 kts | 353° |
| 2026-05-07 01:09 | 36.31540 | 28.08001 | 34095 ft | 450 kts | 341° |
| 2026-05-07 01:09 | 36.34446 | 28.06586 | 34119 ft | 448 kts | 332° |
| 2026-05-07 01:10 | 36.38714 | 28.03007 | 34099 ft | 446 kts | 317° |
| 2026-05-07 01:10 | 36.43947 | 27.96835 | 34108 ft | 448 kts | 316° |
| 2026-05-07 01:11 | 36.48481 | 27.91510 | 34104 ft | 450 kts | 317° |
| 2026-05-07 01:11 | 36.53053 | 27.86186 | 34103 ft | 451 kts | 317° |
| 2026-05-07 01:12 | 36.56900 | 27.81719 | 34101 ft | 452 kts | 317° |
| 2026-05-07 01:12 | 36.61502 | 27.76373 | 34103 ft | 452 kts | 317° |
| 2026-05-07 01:13 | 36.66096 | 27.71026 | 34106 ft | 452 kts | 317° |
| 2026-05-07 01:13 | 36.70691 | 27.65666 | 34099 ft | 453 kts | 317° |
| 2026-05-07 01:14 | 36.75314 | 27.60265 | 34105 ft | 458 kts | 317° |
| 2026-05-07 01:14 | 36.79952 | 27.54837 | 34111 ft | 462 kts | 317° |
| 2026-05-07 01:15 | 36.84686 | 27.49286 | 34111 ft | 466 kts | 317° |
| 2026-05-07 01:15 | 36.89419 | 27.43727 | 34104 ft | 468 kts | 317° |
| 2026-05-07 01:16 | 36.94149 | 27.38162 | 34122 ft | 471 kts | 316° |
| 2026-05-07 01:16 | 36.98925 | 27.32532 | 34114 ft | 473 kts | 316° |
| 2026-05-07 01:17 | 37.03716 | 27.26873 | 34117 ft | 474 kts | 316° |
| 2026-05-07 01:17 | 37.08521 | 27.21189 | 34107 ft | 475 kts | 316° |
| 2026-05-07 01:18 | 37.13327 | 27.15492 | 34095 ft | 476 kts | 316° |
| 2026-05-07 01:18 | 37.18131 | 27.09788 | 34102 ft | 475 kts | 316° |
| 2026-05-07 01:19 | 37.22931 | 27.04077 | 34105 ft | 475 kts | 316° |
| 2026-05-07 01:19 | 37.27722 | 26.98366 | 34108 ft | 475 kts | 316° |
| 2026-05-07 01:20 | 37.32508 | 26.92651 | 34102 ft | 475 kts | 316° |
| 2026-05-07 01:20 | 37.37284 | 26.86937 | 34097 ft | 474 kts | 316° |
| 2026-05-07 01:21 | 37.42133 | 26.81318 | 34107 ft | 473 kts | 319° |
| 2026-05-07 01:21 | 37.47118 | 26.75976 | 34115 ft | 473 kts | 320° |
| 2026-05-07 01:22 | 37.52135 | 26.70619 | 34115 ft | 473 kts | 320° |
| 2026-05-07 01:22 | 37.57136 | 26.65225 | 34115 ft | 473 kts | 319° |
| 2026-05-07 01:23 | 37.62133 | 26.59811 | 34106 ft | 473 kts | 319° |
| 2026-05-07 01:23 | 37.67122 | 26.54399 | 34097 ft | 473 kts | 320° |
| 2026-05-07 01:24 | 37.72115 | 26.48965 | 34092 ft | 474 kts | 319° |
| 2026-05-07 01:24 | 37.77104 | 26.43511 | 34094 ft | 475 kts | 319° |
| 2026-05-07 01:25 | 37.82097 | 26.38041 | 34099 ft | 475 kts | 319° |
| 2026-05-07 01:25 | 37.87103 | 26.32552 | 34095 ft | 476 kts | 319° |
| 2026-05-07 01:26 | 37.92110 | 26.27069 | 34085 ft | 476 kts | 319° |
| 2026-05-07 01:26 | 37.97078 | 26.21624 | 34082 ft | 476 kts | 320° |
| 2026-05-07 01:27 | 38.02081 | 26.16127 | 34087 ft | 476 kts | 320° |
| 2026-05-07 01:27 | 38.07078 | 26.10626 | 34088 ft | 476 kts | 320° |
| 2026-05-07 01:28 | 38.12074 | 26.05120 | 34101 ft | 476 kts | 319° |
| 2026-05-07 01:28 | 38.17073 | 25.99600 | 34085 ft | 476 kts | 319° |
| 2026-05-07 01:29 | 38.22059 | 25.94084 | 34083 ft | 475 kts | 320° |
| 2026-05-07 01:29 | 38.27107 | 25.88672 | 34079 ft | 474 kts | 323° |
| 2026-05-07 01:30 | 38.32360 | 25.83604 | 34073 ft | 473 kts | 323° |
| 2026-05-07 01:30 | 38.37594 | 25.78524 | 34081 ft | 473 kts | 323° |
| 2026-05-07 01:31 | 38.42792 | 25.73392 | 34086 ft | 472 kts | 323° |
| 2026-05-07 01:31 | 38.47983 | 25.68280 | 34074 ft | 471 kts | 323° |
| 2026-05-07 01:32 | 38.53193 | 25.63193 | 34068 ft | 470 kts | 323° |
| 2026-05-07 01:32 | 38.58348 | 25.58154 | 34076 ft | 469 kts | 323° |
| 2026-05-07 01:33 | 38.63524 | 25.53076 | 34072 ft | 468 kts | 323° |
| 2026-05-07 01:33 | 38.68683 | 25.48002 | 34085 ft | 467 kts | 323° |
| 2026-05-07 01:34 | 38.73834 | 25.42926 | 34072 ft | 466 kts | 323° |
| 2026-05-07 01:34 | 38.78969 | 25.37857 | 34067 ft | 465 kts | 323° |
| 2026-05-07 01:35 | 38.84090 | 25.32793 | 34057 ft | 464 kts | 324° |
| 2026-05-07 01:35 | 38.89201 | 25.27727 | 34066 ft | 463 kts | 324° |
| 2026-05-07 01:36 | 38.94291 | 25.22674 | 34069 ft | 463 kts | 324° |
| 2026-05-07 01:36 | 38.99380 | 25.17613 | 34064 ft | 462 kts | 323° |
| 2026-05-07 01:37 | 39.04459 | 25.12552 | 34059 ft | 462 kts | 323° |
| 2026-05-07 01:37 | 39.09499 | 25.07520 | 34060 ft | 461 kts | 323° |
| 2026-05-07 01:38 | 39.14564 | 25.02454 | 34063 ft | 461 kts | 323° |
| 2026-05-07 01:38 | 39.19626 | 24.97382 | 34059 ft | 461 kts | 324° |
| 2026-05-07 01:39 | 39.24680 | 24.92306 | 34066 ft | 461 kts | 323° |
| 2026-05-07 01:39 | 39.29732 | 24.87217 | 34060 ft | 460 kts | 323° |
| 2026-05-07 01:40 | 39.34778 | 24.82124 | 34060 ft | 460 kts | 323° |
| 2026-05-07 01:40 | 39.39826 | 24.77020 | 34060 ft | 460 kts | 323° |
| 2026-05-07 01:41 | 39.44867 | 24.71912 | 34060 ft | 460 kts | 323° |
| 2026-05-07 01:41 | 39.49906 | 24.66799 | 34070 ft | 460 kts | 323° |
| 2026-05-07 01:42 | 39.54943 | 24.61677 | 34056 ft | 460 kts | 323° |
| 2026-05-07 01:42 | 39.59977 | 24.56547 | 34060 ft | 460 kts | 323° |
| 2026-05-07 01:43 | 39.64999 | 24.51418 | 34060 ft | 460 kts | 323° |
| 2026-05-07 01:43 | 39.70024 | 24.46276 | 34056 ft | 460 kts | 323° |
| 2026-05-07 01:44 | 39.75037 | 24.41136 | 34074 ft | 459 kts | 323° |
| 2026-05-07 01:44 | 39.80021 | 24.36018 | 34049 ft | 460 kts | 322° |
| 2026-05-07 01:45 | 39.85036 | 24.30858 | 34060 ft | 460 kts | 322° |
| 2026-05-07 01:45 | 39.90059 | 24.25679 | 34061 ft | 460 kts | 322° |
| 2026-05-07 01:46 | 39.95076 | 24.20495 | 34061 ft | 461 kts | 322° |
| 2026-05-07 01:46 | 40.00106 | 24.15289 | 34060 ft | 461 kts | 322° |
| 2026-05-07 01:47 | 40.05133 | 24.10076 | 34071 ft | 462 kts | 322° |
| 2026-05-07 01:47 | 40.10165 | 24.04847 | 34048 ft | 463 kts | 321° |
| 2026-05-07 01:48 | 40.15203 | 23.99602 | 34063 ft | 464 kts | 321° |
| 2026-05-07 01:48 | 40.20251 | 23.94336 | 34065 ft | 465 kts | 321° |
| 2026-05-07 01:49 | 40.25276 | 23.89084 | 34066 ft | 466 kts | 321° |
| 2026-05-07 01:49 | 40.30345 | 23.83776 | 34066 ft | 467 kts | 321° |
| 2026-05-07 01:50 | 40.35415 | 23.78455 | 34065 ft | 467 kts | 321° |
| 2026-05-07 01:50 | 40.40491 | 23.73119 | 34051 ft | 468 kts | 321° |
| 2026-05-07 01:51 | 40.45571 | 23.67767 | 34064 ft | 469 kts | 321° |
| 2026-05-07 01:51 | 40.50663 | 23.62391 | 34067 ft | 470 kts | 321° |
| 2026-05-07 01:52 | 40.55766 | 23.56994 | 34073 ft | 471 kts | 321° |
| 2026-05-07 01:52 | 40.60872 | 23.51581 | 34059 ft | 472 kts | 321° |
| 2026-05-07 01:53 | 40.65979 | 23.46158 | 34057 ft | 472 kts | 321° |
| 2026-05-07 01:53 | 40.71085 | 23.40725 | 34053 ft | 471 kts | 320° |
| 2026-05-07 01:54 | 40.76182 | 23.35288 | 34060 ft | 470 kts | 320° |
| 2026-05-07 01:54 | 40.81233 | 23.29890 | 34067 ft | 470 kts | 320° |
| 2026-05-07 01:55 | 40.86313 | 23.24451 | 34059 ft | 470 kts | 320° |
| 2026-05-07 01:55 | 40.91395 | 23.19001 | 34066 ft | 470 kts | 320° |
| 2026-05-07 01:56 | 40.96476 | 23.13552 | 34057 ft | 470 kts | 320° |
| 2026-05-07 01:56 | 41.01555 | 23.08096 | 34059 ft | 470 kts | 319° |
| 2026-05-07 01:57 | 41.06635 | 23.02626 | 34079 ft | 471 kts | 319° |
| 2026-05-07 01:57 | 41.11461 | 22.96787 | 34068 ft | 470 kts | 310° |
| 2026-05-07 01:58 | 41.15649 | 22.90134 | 34067 ft | 470 kts | 309° |
| 2026-05-07 01:58 | 41.19839 | 22.83470 | 34060 ft | 470 kts | 309° |
| 2026-05-07 01:59 | 41.24051 | 22.76828 | 34051 ft | 471 kts | 309° |
| 2026-05-07 01:59 | 41.28363 | 22.70275 | 34063 ft | 471 kts | 311° |
| 2026-05-07 02:00 | 41.32808 | 22.63858 | 34064 ft | 472 kts | 311° |
| 2026-05-07 02:00 | 41.37260 | 22.57415 | 34072 ft | 473 kts | 310° |
| 2026-05-07 02:01 | 41.41651 | 22.50988 | 34070 ft | 473 kts | 310° |
| 2026-05-07 02:01 | 41.46066 | 22.44487 | 34062 ft | 473 kts | 310° |
| 2026-05-07 02:02 | 41.50476 | 22.37974 | 34059 ft | 473 kts | 310° |
| 2026-05-07 02:02 | 41.54886 | 22.31449 | 34053 ft | 473 kts | 310° |
| 2026-05-07 02:03 | 41.59298 | 22.24910 | 34052 ft | 473 kts | 310° |
| 2026-05-07 02:03 | 41.62952 | 22.19483 | 34046 ft | 473 kts | 310° |
| 2026-05-07 02:04 | 41.67347 | 22.12943 | 34059 ft | 472 kts | 309° |
| 2026-05-07 02:04 | 41.71742 | 22.06390 | 34046 ft | 473 kts | 309° |
| 2026-05-07 02:05 | 41.76130 | 21.99828 | 34051 ft | 473 kts | 309° |
| 2026-05-07 02:05 | 41.80515 | 21.93258 | 34046 ft | 473 kts | 309° |
| 2026-05-07 02:06 | 41.84902 | 21.86673 | 34061 ft | 473 kts | 309° |
| 2026-05-07 02:06 | 41.89286 | 21.80075 | 34075 ft | 473 kts | 309° |
| 2026-05-07 02:07 | 41.93667 | 21.73468 | 34089 ft | 474 kts | 308° |
| 2026-05-07 02:07 | 42.00244 | 21.63520 | 34065 ft | 474 kts | 308° |
| 2026-05-07 02:08 | 42.04621 | 21.56882 | 34064 ft | 475 kts | 308° |
| 2026-05-07 02:08 | 42.08999 | 21.50225 | 34045 ft | 475 kts | 308° |
| 2026-05-07 02:09 | 42.13374 | 21.43560 | 34045 ft | 475 kts | 308° |
| 2026-05-07 02:09 | 42.17702 | 21.36917 | 34063 ft | 474 kts | 308° |
| 2026-05-07 02:10 | 42.21978 | 21.30149 | 34061 ft | 474 kts | 307° |
| 2026-05-07 02:10 | 42.26236 | 21.23353 | 34067 ft | 474 kts | 307° |
| 2026-05-07 02:11 | 42.30502 | 21.16551 | 34062 ft | 474 kts | 307° |
| 2026-05-07 02:11 | 42.34765 | 21.09755 | 34077 ft | 474 kts | 307° |
| 2026-05-07 02:12 | 42.39032 | 21.02938 | 34072 ft | 475 kts | 307° |
| 2026-05-07 02:12 | 42.43291 | 20.96119 | 34071 ft | 474 kts | 307° |
| 2026-05-07 02:13 | 42.47549 | 20.89286 | 34084 ft | 475 kts | 307° |
| 2026-05-07 02:13 | 42.51802 | 20.82443 | 34088 ft | 475 kts | 307° |
| 2026-05-07 02:14 | 42.56061 | 20.75574 | 34076 ft | 477 kts | 307° |
| 2026-05-07 02:14 | 42.60325 | 20.68682 | 34073 ft | 478 kts | 307° |
| 2026-05-07 02:15 | 42.64600 | 20.61757 | 34065 ft | 479 kts | 306° |
| 2026-05-07 02:15 | 42.68872 | 20.54820 | 34067 ft | 479 kts | 306° |
| 2026-05-07 02:16 | 42.73121 | 20.47902 | 34068 ft | 479 kts | 306° |
| 2026-05-07 02:16 | 42.77398 | 20.40924 | 34080 ft | 481 kts | 306° |
| 2026-05-07 02:17 | 42.81690 | 20.33914 | 34062 ft | 483 kts | 306° |
| 2026-05-07 02:17 | 42.86503 | 20.27460 | 34067 ft | 490 kts | 316° |
| 2026-05-07 02:18 | 42.91815 | 20.21603 | 34072 ft | 491 kts | 316° |
| 2026-05-07 02:18 | 42.97132 | 20.15726 | 34068 ft | 491 kts | 316° |
| 2026-05-07 02:19 | 43.02416 | 20.09819 | 34073 ft | 491 kts | 315° |
| 2026-05-07 02:19 | 43.07700 | 20.03869 | 34076 ft | 493 kts | 315° |
| 2026-05-07 02:20 | 43.12993 | 19.97891 | 34075 ft | 494 kts | 315° |
| 2026-05-07 02:20 | 43.18300 | 19.91889 | 34065 ft | 495 kts | 315° |
| 2026-05-07 02:21 | 43.23601 | 19.85880 | 34074 ft | 495 kts | 315° |
| 2026-05-07 02:21 | 43.28876 | 19.79887 | 34076 ft | 495 kts | 315° |
| 2026-05-07 02:22 | 43.34177 | 19.73850 | 34071 ft | 495 kts | 315° |
| 2026-05-07 02:22 | 43.39481 | 19.67795 | 34067 ft | 495 kts | 315° |
| 2026-05-07 02:23 | 43.44780 | 19.61731 | 34045 ft | 495 kts | 315° |
| 2026-05-07 02:23 | 43.50069 | 19.55666 | 34066 ft | 494 kts | 315° |
| 2026-05-07 02:24 | 43.55340 | 19.49607 | 34049 ft | 493 kts | 315° |
| 2026-05-07 02:24 | 43.60606 | 19.43539 | 34046 ft | 492 kts | 315° |
| 2026-05-07 02:25 | 43.65856 | 19.37472 | 34043 ft | 493 kts | 315° |
| 2026-05-07 02:25 | 43.71117 | 19.31380 | 34024 ft | 493 kts | 314° |
| 2026-05-07 02:26 | 43.76362 | 19.25295 | 34033 ft | 492 kts | 315° |
| 2026-05-07 02:26 | 43.81419 | 19.18961 | 34037 ft | 489 kts | 311° |
| 2026-05-07 02:27 | 43.86339 | 19.12459 | 34023 ft | 489 kts | 311° |
| 2026-05-07 02:27 | 43.91261 | 19.05939 | 34028 ft | 490 kts | 311° |
| 2026-05-07 02:28 | 43.96176 | 18.99454 | 34023 ft | 491 kts | 311° |
| 2026-05-07 02:28 | 44.01141 | 18.92909 | 34022 ft | 492 kts | 311° |
| 2026-05-07 02:29 | 44.06093 | 18.86368 | 34015 ft | 492 kts | 311° |
| 2026-05-07 02:29 | 44.11043 | 18.79812 | 34022 ft | 491 kts | 310° |
| 2026-05-07 02:30 | 44.15990 | 18.73239 | 34016 ft | 491 kts | 310° |
| 2026-05-07 02:30 | 44.20927 | 18.66665 | 34009 ft | 491 kts | 310° |
| 2026-05-07 02:31 | 44.25859 | 18.60084 | 34006 ft | 490 kts | 310° |
| 2026-05-07 02:31 | 44.30780 | 18.53500 | 33995 ft | 490 kts | 310° |
| 2026-05-07 02:32 | 44.35685 | 18.46921 | 34013 ft | 488 kts | 310° |
| 2026-05-07 02:32 | 44.40578 | 18.40341 | 34003 ft | 488 kts | 310° |
| 2026-05-07 02:33 | 44.45465 | 18.33753 | 33992 ft | 488 kts | 310° |
| 2026-05-07 02:33 | 44.50321 | 18.27190 | 33997 ft | 488 kts | 310° |
| 2026-05-07 02:34 | 44.55201 | 18.20581 | 33988 ft | 488 kts | 310° |
| 2026-05-07 02:34 | 44.60085 | 18.13949 | 33980 ft | 489 kts | 310° |
| 2026-05-07 02:35 | 44.64964 | 18.07305 | 33972 ft | 489 kts | 310° |
| 2026-05-07 02:35 | 44.69851 | 18.00638 | 33991 ft | 490 kts | 310° |
| 2026-05-07 02:36 | 44.74735 | 17.93956 | 33985 ft | 490 kts | 310° |
| 2026-05-07 02:36 | 44.79188 | 17.86782 | 33962 ft | 482 kts | 299° |
| 2026-05-07 02:37 | 44.82887 | 17.78929 | 33971 ft | 481 kts | 298° |
| 2026-05-07 02:37 | 44.86570 | 17.71047 | 33974 ft | 482 kts | 298° |
| 2026-05-07 02:38 | 44.90281 | 17.63157 | 33970 ft | 483 kts | 298° |
| 2026-05-07 02:38 | 44.94005 | 17.55258 | 33963 ft | 483 kts | 298° |
| 2026-05-07 02:39 | 44.97723 | 17.47361 | 33965 ft | 483 kts | 298° |
| 2026-05-07 02:39 | 45.01434 | 17.39455 | 33939 ft | 483 kts | 298° |
| 2026-05-07 02:40 | 45.05113 | 17.31590 | 33951 ft | 483 kts | 298° |
| 2026-05-07 02:40 | 45.08810 | 17.23667 | 33953 ft | 482 kts | 298° |
| 2026-05-07 02:41 | 45.12497 | 17.15741 | 33950 ft | 482 kts | 298° |
| 2026-05-07 02:41 | 45.16176 | 17.07811 | 33959 ft | 482 kts | 297° |
| 2026-05-07 02:42 | 45.19857 | 16.99853 | 33956 ft | 483 kts | 297° |
| 2026-05-07 02:42 | 45.23542 | 16.91867 | 33953 ft | 484 kts | 297° |
| 2026-05-07 02:43 | 45.27223 | 16.83866 | 33948 ft | 485 kts | 297° |
| 2026-05-07 02:43 | 45.30908 | 16.75832 | 33953 ft | 486 kts | 297° |
| 2026-05-07 02:44 | 45.34603 | 16.67756 | 33962 ft | 488 kts | 297° |
| 2026-05-07 02:44 | 45.38305 | 16.59640 | 33947 ft | 490 kts | 297° |
| 2026-05-07 02:45 | 45.42010 | 16.51496 | 33946 ft | 490 kts | 297° |
| 2026-05-07 02:45 | 45.45717 | 16.43324 | 33948 ft | 492 kts | 297° |
| 2026-05-07 02:46 | 45.49398 | 16.35185 | 33943 ft | 492 kts | 297° |
| 2026-05-07 02:46 | 45.53108 | 16.26957 | 33943 ft | 493 kts | 297° |
| 2026-05-07 02:47 | 45.56807 | 16.18732 | 33968 ft | 493 kts | 297° |
| 2026-05-07 02:47 | 45.60499 | 16.10498 | 33943 ft | 492 kts | 297° |
| 2026-05-07 02:48 | 45.64179 | 16.02267 | 33934 ft | 491 kts | 297° |
| 2026-05-07 02:48 | 45.67845 | 15.94043 | 33932 ft | 489 kts | 297° |
| 2026-05-07 02:49 | 45.71492 | 15.85837 | 33953 ft | 488 kts | 297° |
| 2026-05-07 02:49 | 45.75130 | 15.77626 | 33941 ft | 489 kts | 296° |
| 2026-05-07 02:50 | 45.78763 | 15.69402 | 33938 ft | 488 kts | 296° |
| 2026-05-07 02:50 | 45.82391 | 15.61166 | 33942 ft | 488 kts | 296° |
| 2026-05-07 02:51 | 45.86012 | 15.52922 | 33944 ft | 488 kts | 296° |
| 2026-05-07 02:51 | 45.89626 | 15.44670 | 33939 ft | 489 kts | 296° |
| 2026-05-07 02:52 | 45.93241 | 15.36392 | 33951 ft | 490 kts | 296° |
| 2026-05-07 02:52 | 45.96837 | 15.28132 | 33944 ft | 491 kts | 296° |
| 2026-05-07 02:53 | 46.00453 | 15.19801 | 33969 ft | 492 kts | 296° |
| 2026-05-07 02:53 | 46.04083 | 15.11410 | 33935 ft | 496 kts | 296° |
| 2026-05-07 02:54 | 46.07738 | 15.02938 | 33933 ft | 499 kts | 296° |
| 2026-05-07 02:54 | 46.10786 | 14.95853 | 33935 ft | 501 kts | 296° |
| 2026-05-07 02:55 | 46.14486 | 14.87234 | 33962 ft | 503 kts | 296° |
| 2026-05-07 02:55 | 46.18172 | 14.78617 | 33945 ft | 506 kts | 296° |
| 2026-05-07 02:56 | 46.21844 | 14.70008 | 33932 ft | 508 kts | 296° |
| 2026-05-07 02:56 | 46.25537 | 14.61318 | 33947 ft | 508 kts | 296° |
| 2026-05-07 02:57 | 46.29236 | 14.52594 | 33979 ft | 507 kts | 296° |
| 2026-05-07 02:57 | 46.32876 | 14.43992 | 33943 ft | 496 kts | 295° |
| 2026-05-07 02:58 | 46.36465 | 14.35470 | 33917 ft | 496 kts | 295° |
| 2026-05-07 02:58 | 46.40051 | 14.26918 | 33915 ft | 497 kts | 295° |
| 2026-05-07 02:59 | 46.43635 | 14.18354 | 33985 ft | 496 kts | 295° |
| 2026-05-07 02:59 | 46.47143 | 14.09973 | 33949 ft | 479 kts | 294° |
| 2026-05-07 03:00 | 46.50557 | 14.01763 | 33935 ft | 479 kts | 294° |
| 2026-05-07 03:00 | 46.53995 | 13.93457 | 33960 ft | 481 kts | 294° |
| 2026-05-07 03:01 | 46.57447 | 13.85096 | 33976 ft | 484 kts | 293° |
| 2026-05-07 03:01 | 46.60926 | 13.76653 | 33947 ft | 489 kts | 293° |
| 2026-05-07 03:02 | 46.64426 | 13.68137 | 33941 ft | 493 kts | 293° |
| 2026-05-07 03:02 | 46.67945 | 13.59553 | 33964 ft | 494 kts | 293° |
| 2026-05-07 03:03 | 46.71465 | 13.50939 | 33960 ft | 496 kts | 293° |
| 2026-05-07 03:03 | 46.75006 | 13.42237 | 33957 ft | 500 kts | 292° |
| 2026-05-07 03:04 | 46.78563 | 13.33468 | 33954 ft | 503 kts | 292° |
| 2026-05-07 03:04 | 46.82103 | 13.24723 | 33958 ft | 504 kts | 292° |
| 2026-05-07 03:05 | 46.85673 | 13.15879 | 33955 ft | 505 kts | 292° |
| 2026-05-07 03:05 | 46.89234 | 13.07023 | 33964 ft | 504 kts | 292° |
| 2026-05-07 03:06 | 46.92769 | 12.98201 | 33960 ft | 502 kts | 292° |
| 2026-05-07 03:06 | 46.96282 | 12.89403 | 33966 ft | 500 kts | 292° |
| 2026-05-07 03:07 | 46.99780 | 12.80616 | 33963 ft | 498 kts | 292° |
| 2026-05-07 03:07 | 47.03262 | 12.71836 | 33961 ft | 497 kts | 292° |
| 2026-05-07 03:08 | 47.06726 | 12.63077 | 33958 ft | 496 kts | 292° |
| 2026-05-07 03:08 | 47.10181 | 12.54312 | 33963 ft | 496 kts | 292° |
| 2026-05-07 03:09 | 47.13604 | 12.45593 | 33966 ft | 497 kts | 292° |
| 2026-05-07 03:09 | 47.17096 | 12.36723 | 33968 ft | 498 kts | 293° |
| 2026-05-07 03:10 | 47.20628 | 12.27950 | 33951 ft | 500 kts | 294° |
| 2026-05-07 03:10 | 47.24168 | 12.19146 | 33958 ft | 499 kts | 294° |
| 2026-05-07 03:11 | 47.27692 | 12.10316 | 33946 ft | 501 kts | 293° |
| 2026-05-07 03:11 | 47.31210 | 12.01465 | 33962 ft | 501 kts | 293° |
| 2026-05-07 03:12 | 47.34739 | 11.92575 | 33950 ft | 503 kts | 294° |
| 2026-05-07 03:12 | 47.38534 | 11.83853 | 33949 ft | 506 kts | 296° |
| 2026-05-07 03:13 | 47.42417 | 11.75263 | 33964 ft | 506 kts | 297° |
| 2026-05-07 03:13 | 47.46335 | 11.66548 | 33961 ft | 506 kts | 297° |
| 2026-05-07 03:14 | 47.50174 | 11.57919 | 33946 ft | 505 kts | 297° |
| 2026-05-07 03:15 | 47.55930 | 11.44878 | 33945 ft | 504 kts | 297° |
| 2026-05-07 03:15 | 47.59752 | 11.36185 | 33990 ft | 503 kts | 297° |
| 2026-05-07 03:16 | 47.63560 | 11.27503 | 33957 ft | 501 kts | 297° |
| 2026-05-07 03:16 | 47.67353 | 11.18830 | 33953 ft | 501 kts | 297° |
| 2026-05-07 03:17 | 47.71139 | 11.10137 | 33949 ft | 501 kts | 297° |
| 2026-05-07 03:17 | 47.74921 | 11.01431 | 33946 ft | 502 kts | 297° |
| 2026-05-07 03:18 | 47.78707 | 10.92684 | 33955 ft | 504 kts | 298° |
| 2026-05-07 03:18 | 47.82497 | 10.83903 | 33942 ft | 505 kts | 297° |
| 2026-05-07 03:19 | 47.86289 | 10.75090 | 33940 ft | 506 kts | 297° |
| 2026-05-07 03:19 | 47.90076 | 10.66258 | 33938 ft | 506 kts | 297° |
| 2026-05-07 03:20 | 47.93865 | 10.57392 | 33935 ft | 507 kts | 298° |
| 2026-05-07 03:20 | 47.97645 | 10.48517 | 33935 ft | 507 kts | 298° |
| 2026-05-07 03:21 | 48.01417 | 10.39637 | 33940 ft | 507 kts | 298° |
| 2026-05-07 03:21 | 48.05189 | 10.30726 | 33937 ft | 507 kts | 298° |
| 2026-05-07 03:22 | 48.08952 | 10.21805 | 33948 ft | 508 kts | 299° |
| 2026-05-07 03:22 | 48.12713 | 10.12859 | 33940 ft | 508 kts | 298° |
| 2026-05-07 03:23 | 48.16446 | 10.03953 | 33938 ft | 508 kts | 298° |
| 2026-05-07 03:23 | 48.20192 | 9.94984 | 33942 ft | 508 kts | 298° |
| 2026-05-07 03:24 | 48.23928 | 9.86008 | 33957 ft | 508 kts | 299° |
| 2026-05-07 03:24 | 48.27688 | 9.76942 | 33943 ft | 508 kts | 299° |
| 2026-05-07 03:25 | 48.31390 | 9.67995 | 33928 ft | 508 kts | 299° |
| 2026-05-07 03:25 | 48.35420 | 9.59268 | 33925 ft | 511 kts | 308° |
| 2026-05-07 03:26 | 48.40250 | 9.51421 | 33921 ft | 512 kts | 311° |
| 2026-05-07 03:26 | 48.45141 | 9.43640 | 33926 ft | 512 kts | 311° |
| 2026-05-07 03:27 | 48.50004 | 9.35800 | 33920 ft | 512 kts | 311° |
| 2026-05-07 03:27 | 48.54840 | 9.27917 | 33920 ft | 511 kts | 310° |
| 2026-05-07 03:28 | 48.59663 | 9.20015 | 33907 ft | 511 kts | 310° |
| 2026-05-07 03:28 | 48.64482 | 9.12097 | 33919 ft | 511 kts | 311° |
| 2026-05-07 03:29 | 48.69291 | 9.04176 | 33924 ft | 511 kts | 311° |
| 2026-05-07 03:29 | 48.74090 | 8.96250 | 33902 ft | 511 kts | 311° |
| 2026-05-07 03:30 | 48.78882 | 8.88312 | 33927 ft | 510 kts | 311° |
| 2026-05-07 03:30 | 48.83673 | 8.80351 | 33933 ft | 510 kts | 311° |
| 2026-05-07 03:31 | 48.88452 | 8.72384 | 33929 ft | 510 kts | 311° |
| 2026-05-07 03:31 | 48.93221 | 8.64410 | 33927 ft | 509 kts | 311° |
| 2026-05-07 03:32 | 48.97943 | 8.56492 | 33929 ft | 509 kts | 311° |
| 2026-05-07 03:32 | 49.02689 | 8.48508 | 33932 ft | 508 kts | 311° |
| 2026-05-07 03:33 | 49.07426 | 8.40514 | 33931 ft | 508 kts | 311° |
| 2026-05-07 03:33 | 49.12186 | 8.32457 | 33936 ft | 508 kts | 311° |
| 2026-05-07 03:34 | 49.16878 | 8.24491 | 33936 ft | 508 kts | 311° |
| 2026-05-07 03:34 | 49.21600 | 8.16450 | 33940 ft | 508 kts | 311° |
| 2026-05-07 03:35 | 49.26312 | 8.08399 | 33942 ft | 508 kts | 311° |
| 2026-05-07 03:35 | 49.31019 | 8.00334 | 33943 ft | 508 kts | 311° |
| 2026-05-07 03:36 | 49.35722 | 7.92249 | 33930 ft | 507 kts | 311° |
| 2026-05-07 03:36 | 49.40410 | 7.84166 | 33927 ft | 507 kts | 311° |
| 2026-05-07 03:37 | 49.45095 | 7.76061 | 33923 ft | 506 kts | 311° |
| 2026-05-07 03:37 | 49.49765 | 7.67959 | 33926 ft | 506 kts | 311° |
| 2026-05-07 03:38 | 49.54423 | 7.59850 | 33934 ft | 505 kts | 311° |
| 2026-05-07 03:38 | 49.59065 | 7.51747 | 33924 ft | 504 kts | 311° |
| 2026-05-07 03:39 | 49.63693 | 7.43641 | 33924 ft | 502 kts | 311° |
| 2026-05-07 03:39 | 49.68303 | 7.35542 | 33924 ft | 502 kts | 311° |
| 2026-05-07 03:40 | 49.72124 | 7.28809 | 33923 ft | 501 kts | 310° |
| 2026-05-07 03:40 | 49.76709 | 7.20706 | 33925 ft | 501 kts | 310° |
| 2026-05-07 03:41 | 49.81287 | 7.12592 | 33928 ft | 500 kts | 310° |
| 2026-05-07 03:41 | 49.85856 | 7.04468 | 33925 ft | 500 kts | 310° |
| 2026-05-07 03:42 | 49.90416 | 6.96335 | 33922 ft | 500 kts | 310° |
| 2026-05-07 03:42 | 49.94968 | 6.88189 | 33934 ft | 500 kts | 310° |
| 2026-05-07 03:43 | 49.99519 | 6.80020 | 33940 ft | 500 kts | 310° |
| 2026-05-07 03:43 | 50.04070 | 6.71826 | 33933 ft | 500 kts | 310° |
| 2026-05-07 03:44 | 50.08611 | 6.63622 | 33935 ft | 501 kts | 310° |
| 2026-05-07 03:44 | 50.13153 | 6.55392 | 33933 ft | 501 kts | 310° |
| 2026-05-07 03:45 | 50.17683 | 6.47132 | 33938 ft | 501 kts | 309° |
| 2026-05-07 03:45 | 50.21599 | 6.38150 | 33948 ft | 500 kts | 301° |
| 2026-05-07 03:46 | 50.25135 | 6.28798 | 33948 ft | 500 kts | 300° |
| 2026-05-07 03:46 | 50.28671 | 6.19452 | 33960 ft | 499 kts | 300° |
| 2026-05-07 03:47 | 50.32227 | 6.10124 | 33957 ft | 499 kts | 300° |
| 2026-05-07 03:47 | 50.35781 | 6.00815 | 33970 ft | 498 kts | 301° |
| 2026-05-07 03:48 | 50.39328 | 5.91492 | 33978 ft | 498 kts | 301° |
| 2026-05-07 03:48 | 50.42862 | 5.82165 | 33979 ft | 497 kts | 301° |
| 2026-05-07 03:49 | 50.46388 | 5.72823 | 33988 ft | 498 kts | 301° |
| 2026-05-07 03:49 | 50.49905 | 5.63469 | 33985 ft | 498 kts | 300° |
| 2026-05-07 03:50 | 50.53416 | 5.54095 | 33991 ft | 498 kts | 301° |
| 2026-05-07 03:50 | 50.56919 | 5.44713 | 33991 ft | 497 kts | 301° |
| 2026-05-07 03:51 | 50.60418 | 5.35306 | 33990 ft | 497 kts | 300° |
| 2026-05-07 03:51 | 50.63879 | 5.25967 | 33994 ft | 497 kts | 300° |
| 2026-05-07 03:52 | 50.67358 | 5.16545 | 33993 ft | 497 kts | 300° |
| 2026-05-07 03:52 | 50.70824 | 5.07122 | 33995 ft | 496 kts | 301° |
| 2026-05-07 03:53 | 50.74278 | 4.97698 | 33989 ft | 495 kts | 300° |
| 2026-05-07 03:53 | 50.77717 | 4.88282 | 33996 ft | 495 kts | 300° |
| 2026-05-07 03:54 | 50.81143 | 4.78865 | 33993 ft | 494 kts | 300° |
| 2026-05-07 03:54 | 50.84556 | 4.69451 | 33994 ft | 493 kts | 300° |
| 2026-05-07 03:55 | 50.87955 | 4.60040 | 34021 ft | 492 kts | 300° |
| 2026-05-07 03:55 | 50.91360 | 4.50640 | 34018 ft | 491 kts | 301° |
| 2026-05-07 03:56 | 50.94910 | 4.41405 | 34022 ft | 490 kts | 302° |
| 2026-05-07 03:56 | 50.98494 | 4.32194 | 34017 ft | 490 kts | 301° |
| 2026-05-07 03:57 | 51.02046 | 4.22949 | 34009 ft | 490 kts | 301° |
| 2026-05-07 03:57 | 51.05575 | 4.13681 | 34007 ft | 490 kts | 301° |
| 2026-05-07 03:58 | 51.09094 | 4.04396 | 34003 ft | 491 kts | 301° |
| 2026-05-07 03:58 | 51.12615 | 3.95082 | 34001 ft | 491 kts | 301° |
| 2026-05-07 03:59 | 51.16131 | 3.85747 | 33998 ft | 491 kts | 301° |
| 2026-05-07 03:59 | 51.19639 | 3.76402 | 34001 ft | 491 kts | 301° |
| 2026-05-07 04:00 | 51.22839 | 3.66799 | 33993 ft | 491 kts | 292° |
| 2026-05-07 04:00 | 51.24924 | 3.56446 | 33997 ft | 490 kts | 282° |
| 2026-05-07 04:01 | 51.26241 | 3.45778 | 34003 ft | 490 kts | 282° |
| 2026-05-07 04:01 | 51.27622 | 3.35117 | 34000 ft | 490 kts | 282° |
| 2026-05-07 04:02 | 51.29009 | 3.24481 | 34016 ft | 489 kts | 282° |
| 2026-05-07 04:02 | 51.30383 | 3.13835 | 34012 ft | 489 kts | 282° |
| 2026-05-07 04:03 | 51.31744 | 3.03197 | 34017 ft | 488 kts | 282° |
| 2026-05-07 04:03 | 51.33084 | 2.92634 | 33999 ft | 487 kts | 281° |
| 2026-05-07 04:04 | 51.34423 | 2.82016 | 34000 ft | 487 kts | 281° |
| 2026-05-07 04:04 | 51.35749 | 2.71396 | 33998 ft | 486 kts | 281° |
| 2026-05-07 04:05 | 51.37049 | 2.60778 | 33999 ft | 486 kts | 281° |
| 2026-05-07 04:05 | 51.38336 | 2.50165 | 34000 ft | 486 kts | 281° |
| 2026-05-07 04:06 | 51.39617 | 2.39542 | 34003 ft | 486 kts | 281° |
| 2026-05-07 04:06 | 51.40890 | 2.28917 | 34010 ft | 486 kts | 281° |
| 2026-05-07 04:07 | 51.42178 | 2.18271 | 34017 ft | 487 kts | 281° |
| 2026-05-07 04:07 | 51.43500 | 2.07624 | 34021 ft | 488 kts | 283° |
| 2026-05-07 04:08 | 51.45862 | 1.97444 | 34026 ft | 488 kts | 296° |
| 2026-05-07 04:08 | 51.49481 | 1.88246 | 34026 ft | 489 kts | 305° |
| 2026-05-07 04:09 | 51.53499 | 1.79396 | 34030 ft | 490 kts | 306° |
| 2026-05-07 04:09 | 51.57502 | 1.70521 | 34037 ft | 491 kts | 305° |
| 2026-05-07 04:10 | 51.61479 | 1.61572 | 34037 ft | 492 kts | 305° |
| 2026-05-07 04:10 | 51.65442 | 1.52575 | 34038 ft | 493 kts | 305° |
| 2026-05-07 04:11 | 51.69401 | 1.43548 | 34035 ft | 493 kts | 305° |
| 2026-05-07 04:11 | 51.73360 | 1.34497 | 34045 ft | 494 kts | 305° |
| 2026-05-07 04:12 | 51.77315 | 1.25425 | 34050 ft | 495 kts | 305° |
| 2026-05-07 04:12 | 51.81271 | 1.16317 | 34050 ft | 495 kts | 306° |
| 2026-05-07 04:13 | 51.85197 | 1.07248 | 34047 ft | 496 kts | 306° |
| 2026-05-07 04:13 | 51.89151 | 0.98085 | 34052 ft | 497 kts | 306° |
| 2026-05-07 04:14 | 51.93108 | 0.88880 | 34058 ft | 498 kts | 306° |
| 2026-05-07 04:14 | 51.97059 | 0.79656 | 34060 ft | 498 kts | 305° |
| 2026-05-07 04:15 | 52.01004 | 0.70412 | 34051 ft | 499 kts | 305° |
| 2026-05-07 04:15 | 52.04944 | 0.61145 | 34055 ft | 499 kts | 306° |
| 2026-05-07 04:16 | 52.08882 | 0.51851 | 34059 ft | 499 kts | 306° |
| 2026-05-07 04:16 | 52.12817 | 0.42532 | 34051 ft | 499 kts | 306° |
| 2026-05-07 04:17 | 52.16742 | 0.33200 | 34057 ft | 500 kts | 306° |
| 2026-05-07 04:17 | 52.20667 | 0.23835 | 34055 ft | 500 kts | 305° |
| 2026-05-07 04:18 | 52.24585 | 0.14452 | 34055 ft | 501 kts | 305° |
| 2026-05-07 04:18 | 52.28500 | 0.05042 | 34056 ft | 501 kts | 306° |
| 2026-05-07 04:19 | 52.32403 | -0.04375 | 34053 ft | 501 kts | 306° |
| 2026-05-07 04:19 | 52.36310 | -0.13833 | 34058 ft | 501 kts | 306° |
| 2026-05-07 04:20 | 52.40202 | -0.23291 | 34056 ft | 502 kts | 306° |
| 2026-05-07 04:20 | 52.44094 | -0.32785 | 34052 ft | 502 kts | 306° |
| 2026-05-07 04:21 | 52.49923 | -0.47071 | 34049 ft | 502 kts | 305° |
| 2026-05-07 04:21 | 52.53797 | -0.56610 | 34047 ft | 502 kts | 306° |
| 2026-05-07 04:22 | 52.57666 | -0.66172 | 34052 ft | 502 kts | 306° |
| 2026-05-07 04:22 | 52.61531 | -0.75760 | 34055 ft | 503 kts | 306° |
| 2026-05-07 04:23 | 52.64735 | -0.83737 | 34057 ft | 503 kts | 305° |
| 2026-05-07 04:23 | 52.69236 | -0.94984 | 34044 ft | 503 kts | 305° |
| 2026-05-07 04:24 | 52.72445 | -1.02999 | 34023 ft | 503 kts | 307° |
| 2026-05-07 04:24 | 52.77713 | -1.13116 | 34051 ft | 499 kts | 319° |
| 2026-05-07 04:25 | 52.81968 | -1.19663 | 34048 ft | 499 kts | 319° |
| 2026-05-07 04:25 | 52.87041 | -1.27504 | 34051 ft | 499 kts | 319° |
| 2026-05-07 04:26 | 52.92089 | -1.35435 | 34050 ft | 500 kts | 319° |
| 2026-05-07 04:26 | 52.97118 | -1.43402 | 34053 ft | 500 kts | 318° |
| 2026-05-07 04:27 | 53.02142 | -1.51384 | 34057 ft | 500 kts | 318° |
| 2026-05-07 04:27 | 53.07163 | -1.59379 | 34056 ft | 500 kts | 318° |
| 2026-05-07 04:28 | 53.12163 | -1.67395 | 34062 ft | 499 kts | 318° |
| 2026-05-07 04:28 | 53.17162 | -1.75458 | 34055 ft | 499 kts | 318° |
| 2026-05-07 04:29 | 53.22034 | -1.83721 | 34054 ft | 501 kts | 311° |
| 2026-05-07 04:29 | 53.25986 | -1.93227 | 34050 ft | 503 kts | 300° |
| 2026-05-07 04:30 | 53.29092 | -2.03712 | 34044 ft | 503 kts | 297° |
| 2026-05-07 04:30 | 53.32147 | -2.14214 | 34061 ft | 502 kts | 298° |
| 2026-05-07 04:31 | 53.35240 | -2.24695 | 34037 ft | 502 kts | 296° |
| 2026-05-07 04:31 | 53.37631 | -2.35694 | 34067 ft | 503 kts | 289° |
| 2026-05-07 04:32 | 53.39694 | -2.46914 | 34040 ft | 504 kts | 288° |
| 2026-05-07 04:32 | 53.41782 | -2.58113 | 34029 ft | 504 kts | 289° |
| 2026-05-07 04:33 | 53.43897 | -2.69314 | 34036 ft | 504 kts | 289° |
| 2026-05-07 04:33 | 53.45994 | -2.80472 | 34026 ft | 505 kts | 289° |
| 2026-05-07 04:34 | 53.48093 | -2.91723 | 34021 ft | 506 kts | 288° |
| 2026-05-07 04:34 | 53.50178 | -3.03082 | 34013 ft | 506 kts | 288° |
| 2026-05-07 04:35 | 53.52220 | -3.14316 | 33999 ft | 506 kts | 288° |
| 2026-05-07 04:35 | 53.54271 | -3.25650 | 34019 ft | 507 kts | 288° |
| 2026-05-07 04:36 | 53.56312 | -3.36980 | 34012 ft | 507 kts | 288° |
| 2026-05-07 04:36 | 53.58347 | -3.48341 | 34006 ft | 507 kts | 288° |
| 2026-05-07 04:37 | 53.60398 | -3.59695 | 34000 ft | 507 kts | 288° |
| 2026-05-07 04:37 | 53.61908 | -3.71289 | 33989 ft | 508 kts | 277° |
| 2026-05-07 04:38 | 53.62349 | -3.83158 | 34001 ft | 508 kts | 274° |
| 2026-05-07 04:38 | 53.62811 | -3.95028 | 33991 ft | 507 kts | 275° |
| 2026-05-07 04:39 | 53.63295 | -4.06888 | 33993 ft | 507 kts | 274° |
| 2026-05-07 04:39 | 53.63745 | -4.18744 | 33990 ft | 507 kts | 274° |
| 2026-05-07 04:40 | 53.64183 | -4.30606 | 33985 ft | 507 kts | 274° |
| 2026-05-07 04:40 | 53.64606 | -4.42453 | 33980 ft | 507 kts | 274° |
| 2026-05-07 04:41 | 53.65016 | -4.54308 | 33988 ft | 506 kts | 274° |
| 2026-05-07 04:41 | 53.65417 | -4.66159 | 33991 ft | 506 kts | 274° |
| 2026-05-07 04:42 | 53.65805 | -4.77911 | 33986 ft | 504 kts | 272° |
| 2026-05-07 04:42 | 53.66187 | -4.89709 | 33972 ft | 503 kts | 273° |
| 2026-05-07 04:43 | 53.66576 | -5.01453 | 33976 ft | 502 kts | 272° |
| 2026-05-07 04:43 | 53.66954 | -5.13187 | 33974 ft | 501 kts | 272° |
| 2026-05-07 04:44 | 53.67304 | -5.24905 | 33976 ft | 500 kts | 272° |
| 2026-05-07 04:44 | 53.67633 | -5.36608 | 33974 ft | 499 kts | 272° |
| 2026-05-07 04:45 | 53.68101 | -5.48270 | 33963 ft | 499 kts | 277° |
| 2026-05-07 04:45 | 53.69638 | -5.59606 | 33976 ft | 499 kts | 287° |
| 2026-05-07 04:46 | 53.71727 | -5.70774 | 33972 ft | 500 kts | 287° |
| 2026-05-07 04:46 | 53.73806 | -5.81979 | 33966 ft | 500 kts | 286° |
| 2026-05-07 04:47 | 53.75846 | -5.93215 | 33967 ft | 500 kts | 287° |
| 2026-05-07 04:47 | 53.77860 | -6.04469 | 33966 ft | 500 kts | 286° |
| 2026-05-07 04:48 | 53.79861 | -6.15738 | 33960 ft | 501 kts | 286° |
| 2026-05-07 04:48 | 53.81856 | -6.27031 | 33955 ft | 501 kts | 286° |
| 2026-05-07 04:49 | 53.83843 | -6.38344 | 33968 ft | 501 kts | 285° |
| 2026-05-07 04:49 | 53.85815 | -6.49642 | 33954 ft | 500 kts | 285° |
| 2026-05-07 04:50 | 53.87759 | -6.60852 | 33949 ft | 499 kts | 285° |
| 2026-05-07 04:50 | 53.89703 | -6.72135 | 33954 ft | 498 kts | 285° |
| 2026-05-07 04:51 | 53.91635 | -6.83418 | 33961 ft | 498 kts | 285° |
| 2026-05-07 04:51 | 53.93555 | -6.94699 | 33936 ft | 497 kts | 285° |
| 2026-05-07 04:52 | 53.95463 | -7.05983 | 33946 ft | 497 kts | 285° |
| 2026-05-07 04:52 | 53.97361 | -7.17286 | 33953 ft | 497 kts | 285° |
| 2026-05-07 04:53 | 53.99248 | -7.28596 | 33934 ft | 498 kts | 284° |
| 2026-05-07 04:53 | 54.01126 | -7.39923 | 33960 ft | 498 kts | 284° |
| 2026-05-07 04:54 | 54.02994 | -7.51260 | 33944 ft | 497 kts | 284° |
| 2026-05-07 04:54 | 54.04846 | -7.62580 | 33937 ft | 496 kts | 284° |
| 2026-05-07 04:55 | 54.06683 | -7.73885 | 33942 ft | 495 kts | 284° |
| 2026-05-07 04:55 | 54.08510 | -7.85203 | 33941 ft | 495 kts | 284° |
| 2026-05-07 04:56 | 54.10310 | -7.96422 | 33938 ft | 494 kts | 283° |
| 2026-05-07 04:56 | 54.12110 | -8.07723 | 33935 ft | 494 kts | 283° |
| 2026-05-07 04:57 | 54.13896 | -8.19013 | 33942 ft | 493 kts | 283° |
| 2026-05-07 04:57 | 54.15672 | -8.30312 | 33938 ft | 493 kts | 283° |
| 2026-05-07 04:58 | 54.17439 | -8.41637 | 33931 ft | 493 kts | 283° |
| 2026-05-07 04:58 | 54.19194 | -8.52956 | 33942 ft | 493 kts | 283° |
| 2026-05-07 04:59 | 54.20939 | -8.64293 | 33939 ft | 492 kts | 282° |
| 2026-05-07 04:59 | 54.22668 | -8.75600 | 33926 ft | 491 kts | 282° |
| 2026-05-07 05:00 | 54.24371 | -8.86815 | 33923 ft | 490 kts | 282° |
| 2026-05-07 05:00 | 54.26081 | -8.98158 | 33929 ft | 489 kts | 282° |
| 2026-05-07 05:01 | 54.27754 | -9.09336 | 33923 ft | 489 kts | 281° |
| 2026-05-07 05:01 | 54.29429 | -9.20607 | 33919 ft | 489 kts | 281° |
| 2026-05-07 05:02 | 54.31093 | -9.31884 | 33910 ft | 488 kts | 281° |
| 2026-05-07 05:02 | 54.32747 | -9.43166 | 33906 ft | 489 kts | 281° |
| 2026-05-07 05:03 | 54.34392 | -9.54474 | 33910 ft | 489 kts | 281° |
| 2026-05-07 05:03 | 54.36027 | -9.65792 | 33909 ft | 489 kts | 281° |
| 2026-05-07 05:04 | 54.37653 | -9.77124 | 33899 ft | 489 kts | 280° |
| 2026-05-07 05:04 | 54.39263 | -9.88439 | 33894 ft | 487 kts | 280° |
| 2026-05-07 05:05 | 54.40858 | -9.99728 | 33892 ft | 486 kts | 280° |
| 2026-05-07 05:05 | 54.42438 | -10.10990 | 33889 ft | 485 kts | 280° |
| 2026-05-07 05:06 | 54.43993 | -10.22161 | 33895 ft | 484 kts | 279° |
| 2026-05-07 05:06 | 54.45549 | -10.33420 | 33881 ft | 484 kts | 279° |
| 2026-05-07 05:07 | 54.47091 | -10.44665 | 33878 ft | 483 kts | 279° |
| 2026-05-07 05:07 | 54.48621 | -10.55905 | 33880 ft | 483 kts | 279° |
| 2026-05-07 05:08 | 54.50142 | -10.67163 | 33877 ft | 483 kts | 279° |
| 2026-05-07 05:08 | 54.51652 | -10.78426 | 33875 ft | 483 kts | 279° |
| 2026-05-07 05:09 | 54.53154 | -10.89714 | 33883 ft | 483 kts | 278° |
| 2026-05-07 05:09 | 54.54641 | -11.00972 | 33869 ft | 481 kts | 278° |
| 2026-05-07 05:10 | 54.56113 | -11.12209 | 33859 ft | 480 kts | 278° |
| 2026-05-07 05:10 | 54.57560 | -11.23342 | 33868 ft | 479 kts | 278° |
| 2026-05-07 05:11 | 54.59003 | -11.34533 | 33862 ft | 478 kts | 278° |
| 2026-05-07 05:11 | 54.60435 | -11.45721 | 33863 ft | 478 kts | 278° |
| 2026-05-07 05:12 | 54.61855 | -11.56911 | 33855 ft | 477 kts | 277° |
| 2026-05-07 05:12 | 54.63264 | -11.68105 | 33856 ft | 478 kts | 277° |
| 2026-05-07 05:13 | 54.64667 | -11.79332 | 33855 ft | 478 kts | 277° |
| 2026-05-07 05:13 | 54.66057 | -11.90551 | 33855 ft | 478 kts | 277° |
| 2026-05-07 05:14 | 54.67439 | -12.01789 | 33877 ft | 478 kts | 277° |
| 2026-05-07 05:14 | 54.68808 | -12.13020 | 33847 ft | 477 kts | 276° |
| 2026-05-07 05:15 | 54.70163 | -12.24224 | 33841 ft | 475 kts | 276° |
| 2026-05-07 05:15 | 54.71505 | -12.35413 | 33845 ft | 474 kts | 276° |
| 2026-05-07 05:16 | 54.72608 | -12.44687 | 33842 ft | 473 kts | 276° |
| 2026-05-07 05:16 | 54.73924 | -12.55829 | 33853 ft | 472 kts | 276° |
| 2026-05-07 05:17 | 54.75229 | -12.66979 | 33833 ft | 472 kts | 276° |
| 2026-05-07 05:17 | 54.76523 | -12.78127 | 33830 ft | 471 kts | 276° |
| 2026-05-07 05:18 | 54.77796 | -12.89191 | 33844 ft | 471 kts | 276° |
| 2026-05-07 05:18 | 54.79067 | -13.00330 | 33838 ft | 471 kts | 275° |
| 2026-05-07 05:19 | 54.80325 | -13.11455 | 33860 ft | 471 kts | 275° |
| 2026-05-07 05:19 | 54.81576 | -13.22612 | 33848 ft | 470 kts | 275° |
| 2026-05-07 05:20 | 54.82805 | -13.33662 | 33834 ft | 468 kts | 275° |
| 2026-05-07 05:20 | 54.84026 | -13.44730 | 33829 ft | 465 kts | 275° |
| 2026-05-07 05:21 | 54.85822 | -13.61216 | 33831 ft | 463 kts | 275° |
| 2026-05-07 05:22 | 54.87007 | -13.72226 | 33846 ft | 463 kts | 274° |
| 2026-05-07 05:22 | 54.88185 | -13.83258 | 33841 ft | 463 kts | 274° |
| 2026-05-07 05:23 | 54.89342 | -13.94189 | 33830 ft | 463 kts | 274° |
| 2026-05-07 05:23 | 54.90498 | -14.05217 | 33830 ft | 463 kts | 274° |
| 2026-05-07 05:24 | 54.91646 | -14.16266 | 33829 ft | 464 kts | 274° |
| 2026-05-07 05:24 | 54.92782 | -14.27306 | 33828 ft | 464 kts | 274° |
| 2026-05-07 05:25 | 54.93912 | -14.38384 | 33862 ft | 464 kts | 275° |
| 2026-05-07 05:25 | 54.95023 | -14.49378 | 33827 ft | 464 kts | 275° |
| 2026-05-07 05:26 | 54.96130 | -14.60447 | 33827 ft | 463 kts | 275° |
| 2026-05-07 05:26 | 54.97225 | -14.71499 | 33828 ft | 462 kts | 275° |
| 2026-05-07 05:27 | 54.98308 | -14.82528 | 33828 ft | 462 kts | 275° |
| 2026-05-07 05:27 | 54.99374 | -14.93491 | 33844 ft | 461 kts | 275° |
| 2026-05-07 05:28 | 55.00927 | -15.04396 | 33830 ft | 468 kts | 284° |
| 2026-05-07 05:28 | 55.03323 | -15.15009 | 33835 ft | 470 kts | 287° |
| 2026-05-07 05:29 | 55.05734 | -15.25618 | 33830 ft | 470 kts | 286° |
| 2026-05-07 05:29 | 55.08117 | -15.36258 | 33831 ft | 470 kts | 286° |
| 2026-05-07 05:30 | 55.10461 | -15.46832 | 33831 ft | 470 kts | 286° |
| 2026-05-07 05:30 | 55.12815 | -15.57525 | 33848 ft | 470 kts | 286° |
| 2026-05-07 05:31 | 55.15155 | -15.68203 | 33828 ft | 471 kts | 286° |
| 2026-05-07 05:31 | 55.17491 | -15.78916 | 33830 ft | 470 kts | 286° |
| 2026-05-07 05:32 | 55.19799 | -15.89551 | 33838 ft | 470 kts | 286° |
| 2026-05-07 05:32 | 55.22113 | -16.00274 | 33835 ft | 470 kts | 286° |
| 2026-05-07 05:33 | 55.24419 | -16.11015 | 33876 ft | 470 kts | 286° |
| 2026-05-07 05:33 | 55.26718 | -16.21786 | 33846 ft | 473 kts | 286° |
| 2026-05-07 05:34 | 55.29019 | -16.32614 | 33853 ft | 474 kts | 286° |
| 2026-05-07 05:34 | 55.31315 | -16.43479 | 33844 ft | 475 kts | 286° |
| 2026-05-07 05:35 | 55.33593 | -16.54316 | 33848 ft | 475 kts | 286° |
| 2026-05-07 05:35 | 55.35877 | -16.65237 | 33849 ft | 476 kts | 286° |
| 2026-05-07 05:36 | 55.38151 | -16.76173 | 33847 ft | 476 kts | 286° |
| 2026-05-07 05:36 | 55.40400 | -16.87049 | 33868 ft | 475 kts | 286° |
| 2026-05-07 05:37 | 55.42658 | -16.98022 | 33853 ft | 477 kts | 286° |
| 2026-05-07 05:37 | 55.44911 | -17.09047 | 33847 ft | 478 kts | 286° |
| 2026-05-07 05:38 | 55.47143 | -17.20020 | 33853 ft | 478 kts | 286° |
| 2026-05-07 05:38 | 55.49378 | -17.31068 | 33855 ft | 479 kts | 286° |
| 2026-05-07 05:39 | 55.51609 | -17.42156 | 33863 ft | 479 kts | 286° |
| 2026-05-07 05:39 | 55.53828 | -17.53248 | 33863 ft | 479 kts | 286° |
| 2026-05-07 05:40 | 55.56036 | -17.64349 | 33863 ft | 479 kts | 286° |
| 2026-05-07 05:40 | 55.58222 | -17.75404 | 33875 ft | 479 kts | 286° |
| 2026-05-07 05:41 | 55.60409 | -17.86524 | 33864 ft | 478 kts | 285° |
| 2026-05-07 05:41 | 55.62582 | -17.97639 | 33874 ft | 478 kts | 285° |
| 2026-05-07 05:42 | 55.64743 | -18.08753 | 33877 ft | 477 kts | 285° |
| 2026-05-07 05:42 | 55.66894 | -18.19883 | 33877 ft | 477 kts | 285° |
| 2026-05-07 05:43 | 55.69020 | -18.30947 | 33891 ft | 476 kts | 285° |
| 2026-05-07 05:43 | 55.71146 | -18.42070 | 33887 ft | 476 kts | 285° |
| 2026-05-07 05:44 | 55.73262 | -18.53216 | 33901 ft | 477 kts | 285° |
| 2026-05-07 05:44 | 55.75375 | -18.64403 | 33899 ft | 477 kts | 285° |
| 2026-05-07 05:45 | 55.77459 | -18.75506 | 33910 ft | 477 kts | 285° |
| 2026-05-07 05:45 | 55.79545 | -18.86684 | 33910 ft | 476 kts | 285° |
| 2026-05-07 05:46 | 55.81623 | -18.97883 | 33908 ft | 476 kts | 285° |
| 2026-05-07 05:46 | 55.83692 | -19.09100 | 33921 ft | 477 kts | 285° |
| 2026-05-07 05:47 | 55.85753 | -19.20346 | 33924 ft | 477 kts | 285° |
| 2026-05-07 05:47 | 55.87788 | -19.31513 | 33943 ft | 477 kts | 285° |
| 2026-05-07 05:48 | 55.89828 | -19.42774 | 33935 ft | 477 kts | 285° |
| 2026-05-07 05:48 | 55.91855 | -19.54038 | 33934 ft | 477 kts | 285° |
| 2026-05-07 05:49 | 55.93871 | -19.65302 | 33945 ft | 476 kts | 285° |
| 2026-05-07 05:49 | 55.95858 | -19.76481 | 33945 ft | 475 kts | 285° |
| 2026-05-07 05:50 | 55.97851 | -19.87748 | 33960 ft | 475 kts | 285° |
| 2026-05-07 05:50 | 55.99673 | -19.99065 | 33955 ft | 473 kts | 279° |
| 2026-05-07 05:51 | 56.00493 | -20.10667 | 33989 ft | 470 kts | 272° |
| 2026-05-07 05:51 | 56.00903 | -20.22282 | 33969 ft | 471 kts | 272° |
| 2026-05-07 05:52 | 56.01326 | -20.33998 | 33971 ft | 472 kts | 272° |
| 2026-05-07 05:52 | 56.01756 | -20.45714 | 33979 ft | 473 kts | 272° |
| 2026-05-07 05:53 | 56.02182 | -20.57394 | 33975 ft | 474 kts | 272° |
| 2026-05-07 05:53 | 56.02599 | -20.69162 | 33991 ft | 474 kts | 272° |
| 2026-05-07 05:54 | 56.03007 | -20.80964 | 33987 ft | 475 kts | 272° |
| 2026-05-07 05:54 | 56.03402 | -20.92770 | 33988 ft | 475 kts | 272° |
| 2026-05-07 05:55 | 56.03784 | -21.04514 | 34006 ft | 476 kts | 272° |
| 2026-05-07 05:55 | 56.04157 | -21.16353 | 34015 ft | 476 kts | 272° |
| 2026-05-07 05:56 | 56.04519 | -21.28186 | 34013 ft | 477 kts | 272° |
| 2026-05-07 05:56 | 56.04871 | -21.40053 | 34018 ft | 477 kts | 272° |
| 2026-05-07 05:57 | 56.05209 | -21.51868 | 34013 ft | 478 kts | 272° |
| 2026-05-07 05:57 | 56.05539 | -21.63759 | 34022 ft | 479 kts | 272° |
| 2026-05-07 05:58 | 56.05858 | -21.75673 | 34034 ft | 479 kts | 272° |
| 2026-05-07 05:58 | 56.06165 | -21.87598 | 34039 ft | 480 kts | 272° |
| 2026-05-07 05:59 | 56.06460 | -21.99476 | 34036 ft | 480 kts | 272° |
| 2026-05-07 05:59 | 56.06744 | -22.11416 | 34042 ft | 480 kts | 272° |
| 2026-05-07 06:00 | 56.07016 | -22.23305 | 34047 ft | 480 kts | 272° |
| 2026-05-07 06:00 | 56.07278 | -22.35254 | 34052 ft | 480 kts | 272° |
| 2026-05-07 06:01 | 56.07529 | -22.47234 | 34058 ft | 481 kts | 272° |
| 2026-05-07 06:01 | 56.07768 | -22.59230 | 34051 ft | 481 kts | 272° |
| 2026-05-07 06:02 | 56.07995 | -22.71149 | 34057 ft | 481 kts | 272° |
| 2026-05-07 06:02 | 56.08210 | -22.83147 | 34058 ft | 482 kts | 273° |
| 2026-05-07 06:03 | 56.08415 | -22.95150 | 34069 ft | 483 kts | 272° |
| 2026-05-07 06:03 | 56.08609 | -23.07185 | 34082 ft | 483 kts | 272° |
| 2026-05-07 06:04 | 56.08790 | -23.19160 | 34079 ft | 484 kts | 272° |
| 2026-05-07 06:04 | 56.08961 | -23.31243 | 34073 ft | 484 kts | 272° |
| 2026-05-07 06:05 | 56.09119 | -23.43310 | 34072 ft | 484 kts | 272° |
| 2026-05-07 06:05 | 56.09266 | -23.55330 | 34090 ft | 485 kts | 272° |
| 2026-05-07 06:06 | 56.09402 | -23.67412 | 34085 ft | 485 kts | 272° |
| 2026-05-07 06:06 | 56.09505 | -23.77462 | 34091 ft | 485 kts | 272° |
| 2026-05-07 06:07 | 56.09619 | -23.89544 | 34094 ft | 485 kts | 272° |
| 2026-05-07 06:07 | 56.09737 | -24.03587 | 34096 ft | 485 kts | 272° |
| 2026-05-07 06:08 | 56.09811 | -24.13640 | 34114 ft | 485 kts | 272° |
| 2026-05-07 06:08 | 56.09889 | -24.25739 | 34109 ft | 485 kts | 272° |
| 2026-05-07 06:09 | 56.09956 | -24.37857 | 34107 ft | 486 kts | 272° |
| 2026-05-07 06:09 | 56.10011 | -24.49963 | 34115 ft | 486 kts | 272° |
| 2026-05-07 06:10 | 56.10054 | -24.62003 | 34114 ft | 486 kts | 272° |
| 2026-05-07 06:10 | 56.10085 | -24.74111 | 34120 ft | 486 kts | 272° |
| 2026-05-07 06:11 | 56.10105 | -24.86234 | 34125 ft | 486 kts | 272° |
| 2026-05-07 06:11 | 56.10113 | -24.98353 | 34124 ft | 486 kts | 272° |
| 2026-05-07 06:12 | 56.10108 | -25.10462 | 34122 ft | 486 kts | 272° |
| 2026-05-07 06:12 | 56.10092 | -25.22511 | 34133 ft | 486 kts | 272° |
| 2026-05-07 06:13 | 56.10064 | -25.34607 | 34124 ft | 485 kts | 272° |
| 2026-05-07 06:13 | 56.10025 | -25.46721 | 34141 ft | 485 kts | 272° |
| 2026-05-07 06:14 | 56.09973 | -25.58838 | 34145 ft | 486 kts | 272° |
| 2026-05-07 06:14 | 56.09910 | -25.70944 | 34144 ft | 486 kts | 272° |
| 2026-05-07 06:15 | 56.09835 | -25.82988 | 34144 ft | 486 kts | 272° |
| 2026-05-07 06:15 | 56.09747 | -25.95089 | 34147 ft | 485 kts | 272° |
| 2026-05-07 06:16 | 56.09649 | -26.07164 | 34153 ft | 485 kts | 272° |
| 2026-05-07 06:16 | 56.09539 | -26.19284 | 34155 ft | 485 kts | 272° |
| 2026-05-07 06:17 | 56.09417 | -26.31302 | 34161 ft | 485 kts | 272° |
| 2026-05-07 06:17 | 56.09283 | -26.43407 | 34157 ft | 486 kts | 272° |
| 2026-05-07 06:18 | 56.09136 | -26.55513 | 34145 ft | 485 kts | 272° |
| 2026-05-07 06:18 | 56.08978 | -26.67600 | 34159 ft | 485 kts | 272° |
| 2026-05-07 06:19 | 56.08810 | -26.79614 | 34173 ft | 485 kts | 272° |
| 2026-05-07 06:19 | 56.08629 | -26.91709 | 34173 ft | 485 kts | 272° |
| 2026-05-07 06:20 | 56.08436 | -27.03802 | 34174 ft | 486 kts | 272° |
| 2026-05-07 06:20 | 56.08230 | -27.15892 | 34147 ft | 486 kts | 272° |
| 2026-05-07 06:21 | 56.08015 | -27.27890 | 34178 ft | 485 kts | 272° |
| 2026-05-07 06:21 | 56.07787 | -27.39962 | 34182 ft | 485 kts | 272° |
| 2026-05-07 06:22 | 56.07547 | -27.52035 | 34191 ft | 485 kts | 272° |
| 2026-05-07 06:22 | 56.07166 | -27.70069 | 34182 ft | 484 kts | 272° |
| 2026-05-07 06:23 | 56.06896 | -27.82130 | 34179 ft | 483 kts | 272° |
| 2026-05-07 06:23 | 56.06615 | -27.94161 | 34189 ft | 483 kts | 272° |
| 2026-05-07 06:24 | 56.06326 | -28.06092 | 34195 ft | 482 kts | 272° |
| 2026-05-07 06:24 | 56.06024 | -28.18083 | 34203 ft | 482 kts | 272° |
| 2026-05-07 06:25 | 56.05709 | -28.30083 | 34200 ft | 482 kts | 272° |
| 2026-05-07 06:25 | 56.05385 | -28.42002 | 34174 ft | 482 kts | 272° |
| 2026-05-07 06:26 | 56.05047 | -28.53963 | 34199 ft | 480 kts | 272° |
| 2026-05-07 06:26 | 56.04699 | -28.65906 | 34213 ft | 479 kts | 272° |
| 2026-05-07 06:27 | 56.04343 | -28.77748 | 34207 ft | 479 kts | 272° |
| 2026-05-07 06:27 | 56.03974 | -28.89636 | 34210 ft | 478 kts | 272° |
| 2026-05-07 06:28 | 56.03594 | -29.01527 | 34173 ft | 478 kts | 272° |
| 2026-05-07 06:28 | 56.03204 | -29.13278 | 34210 ft | 475 kts | 273° |
| 2026-05-07 06:29 | 56.02804 | -29.25051 | 34214 ft | 473 kts | 273° |
| 2026-05-07 06:29 | 56.02396 | -29.36770 | 34218 ft | 471 kts | 273° |
| 2026-05-07 06:30 | 56.01980 | -29.48415 | 34218 ft | 471 kts | 272° |
| 2026-05-07 06:30 | 56.01550 | -29.60118 | 34230 ft | 472 kts | 272° |
| 2026-05-07 06:31 | 56.01107 | -29.71799 | 34218 ft | 469 kts | 274° |
| 2026-05-07 06:31 | 56.00661 | -29.83413 | 34222 ft | 467 kts | 274° |
| 2026-05-07 06:32 | 56.00332 | -29.94953 | 34223 ft | 460 kts | 279° |
| 2026-05-07 06:32 | 56.00944 | -30.06215 | 34235 ft | 451 kts | 286° |
| 2026-05-07 06:33 | 56.02347 | -30.16972 | 34245 ft | 446 kts | 290° |
| 2026-05-07 06:33 | 56.03905 | -30.27743 | 34239 ft | 447 kts | 290° |
| 2026-05-07 06:34 | 56.05448 | -30.38545 | 34241 ft | 448 kts | 290° |
| 2026-05-07 06:34 | 56.06961 | -30.49315 | 34246 ft | 448 kts | 290° |
| 2026-05-07 06:35 | 56.08469 | -30.60174 | 34243 ft | 449 kts | 290° |
| 2026-05-07 06:35 | 56.09969 | -30.71064 | 34247 ft | 449 kts | 290° |
| 2026-05-07 06:36 | 56.11449 | -30.81891 | 34251 ft | 450 kts | 290° |
| 2026-05-07 06:36 | 56.12932 | -30.92808 | 34253 ft | 450 kts | 290° |
| 2026-05-07 06:37 | 56.14403 | -31.03724 | 34256 ft | 450 kts | 290° |
| 2026-05-07 06:37 | 56.15863 | -31.14636 | 34193 ft | 450 kts | 290° |
| 2026-05-07 06:38 | 56.17295 | -31.25429 | 34260 ft | 445 kts | 290° |
| 2026-05-07 06:38 | 56.18717 | -31.36211 | 34264 ft | 443 kts | 290° |
| 2026-05-07 06:39 | 56.20126 | -31.46973 | 34263 ft | 441 kts | 290° |
| 2026-05-07 06:39 | 56.21523 | -31.57712 | 34267 ft | 441 kts | 290° |
| 2026-05-07 06:40 | 56.22904 | -31.68406 | 34271 ft | 441 kts | 290° |
| 2026-05-07 06:40 | 56.24282 | -31.79158 | 34272 ft | 442 kts | 290° |
| 2026-05-07 06:41 | 56.25652 | -31.89935 | 34277 ft | 442 kts | 290° |
| 2026-05-07 06:41 | 56.27016 | -32.00753 | 34252 ft | 441 kts | 290° |
| 2026-05-07 06:42 | 56.28354 | -32.11450 | 34278 ft | 441 kts | 290° |
| 2026-05-07 06:42 | 56.29696 | -32.22249 | 34284 ft | 441 kts | 289° |
| 2026-05-07 06:43 | 56.31026 | -32.33035 | 34283 ft | 441 kts | 289° |
| 2026-05-07 06:43 | 56.32348 | -32.43845 | 34288 ft | 441 kts | 289° |
| 2026-05-07 06:44 | 56.33662 | -32.54664 | 34288 ft | 441 kts | 289° |
| 2026-05-07 06:44 | 56.34957 | -32.65422 | 34288 ft | 441 kts | 289° |
| 2026-05-07 06:45 | 56.36252 | -32.76265 | 34230 ft | 441 kts | 289° |
| 2026-05-07 06:45 | 56.37535 | -32.87094 | 34285 ft | 441 kts | 288° |
| 2026-05-07 06:46 | 56.38799 | -32.97843 | 34293 ft | 441 kts | 288° |
| 2026-05-07 06:46 | 56.40065 | -33.08697 | 34301 ft | 442 kts | 288° |
| 2026-05-07 06:47 | 56.41324 | -33.19577 | 34300 ft | 442 kts | 288° |
| 2026-05-07 06:47 | 56.42574 | -33.30481 | 34299 ft | 442 kts | 288° |
| 2026-05-07 06:48 | 56.43813 | -33.41369 | 34302 ft | 443 kts | 288° |
| 2026-05-07 06:48 | 56.45036 | -33.52208 | 34309 ft | 443 kts | 288° |
| 2026-05-07 06:49 | 56.46259 | -33.63147 | 34274 ft | 443 kts | 287° |
| 2026-05-07 06:49 | 56.47466 | -33.74018 | 34301 ft | 444 kts | 287° |
| 2026-05-07 06:50 | 56.48676 | -33.85013 | 34309 ft | 446 kts | 287° |
| 2026-05-07 06:50 | 56.49880 | -33.96059 | 34310 ft | 448 kts | 287° |
| 2026-05-07 06:51 | 56.51078 | -34.07149 | 34313 ft | 449 kts | 287° |
| 2026-05-07 06:51 | 56.52268 | -34.18262 | 34312 ft | 449 kts | 287° |
| 2026-05-07 06:52 | 56.53442 | -34.29334 | 34310 ft | 449 kts | 286° |
| 2026-05-07 06:52 | 56.54610 | -34.40442 | 34285 ft | 448 kts | 286° |
| 2026-05-07 06:53 | 56.55768 | -34.51558 | 34311 ft | 447 kts | 285° |
| 2026-05-07 06:53 | 56.56910 | -34.62615 | 34326 ft | 446 kts | 285° |
| 2026-05-07 06:54 | 56.58039 | -34.73642 | 34314 ft | 446 kts | 285° |
| 2026-05-07 06:54 | 56.59166 | -34.84748 | 34308 ft | 446 kts | 285° |
| 2026-05-07 06:55 | 56.60271 | -34.95758 | 34316 ft | 446 kts | 285° |
| 2026-05-07 06:55 | 56.61374 | -35.06846 | 34316 ft | 447 kts | 285° |
| 2026-05-07 06:56 | 56.62469 | -35.17951 | 34312 ft | 447 kts | 285° |
| 2026-05-07 06:56 | 56.63555 | -35.29081 | 34302 ft | 446 kts | 285° |
| 2026-05-07 06:57 | 56.64629 | -35.40193 | 34314 ft | 446 kts | 284° |
| 2026-05-07 06:57 | 56.65688 | -35.51261 | 34320 ft | 447 kts | 284° |
| 2026-05-07 06:58 | 56.66575 | -35.60605 | 34321 ft | 448 kts | 284° |
| 2026-05-07 06:58 | 56.67625 | -35.71785 | 34319 ft | 448 kts | 284° |
| 2026-05-07 06:59 | 56.68661 | -35.82922 | 34315 ft | 448 kts | 284° |
| 2026-05-07 06:59 | 56.69691 | -35.94111 | 34323 ft | 448 kts | 284° |
| 2026-05-07 07:00 | 56.70706 | -36.05251 | 34325 ft | 448 kts | 284° |
| 2026-05-07 07:00 | 56.71714 | -36.16433 | 34316 ft | 448 kts | 284° |
| 2026-05-07 07:01 | 56.72717 | -36.27656 | 34319 ft | 449 kts | 284° |
| 2026-05-07 07:01 | 56.73710 | -36.38906 | 34319 ft | 450 kts | 284° |
| 2026-05-07 07:02 | 56.74689 | -36.50110 | 34321 ft | 450 kts | 284° |
| 2026-05-07 07:02 | 56.75665 | -36.61405 | 34315 ft | 451 kts | 284° |
| 2026-05-07 07:03 | 56.76631 | -36.72716 | 34323 ft | 451 kts | 284° |
| 2026-05-07 07:03 | 56.77581 | -36.83962 | 34322 ft | 451 kts | 284° |
| 2026-05-07 07:04 | 56.78527 | -36.95278 | 34282 ft | 451 kts | 283° |
| 2026-05-07 07:04 | 56.79461 | -37.06591 | 34315 ft | 451 kts | 283° |
| 2026-05-07 07:05 | 56.80389 | -37.17947 | 34316 ft | 452 kts | 283° |
| 2026-05-07 07:05 | 56.81306 | -37.29301 | 34328 ft | 452 kts | 283° |
| 2026-05-07 07:06 | 56.82207 | -37.40596 | 34339 ft | 453 kts | 283° |
| 2026-05-07 07:06 | 56.83105 | -37.51990 | 34326 ft | 453 kts | 283° |
| 2026-05-07 07:07 | 56.83991 | -37.63373 | 34332 ft | 452 kts | 283° |
| 2026-05-07 07:07 | 56.84862 | -37.74693 | 34330 ft | 452 kts | 283° |
| 2026-05-07 07:08 | 56.85725 | -37.86062 | 34319 ft | 449 kts | 283° |
| 2026-05-07 07:08 | 56.86571 | -37.97343 | 34316 ft | 447 kts | 283° |
| 2026-05-07 07:09 | 56.87404 | -38.08583 | 34323 ft | 445 kts | 283° |
| 2026-05-07 07:09 | 56.88225 | -38.19784 | 34325 ft | 443 kts | 283° |
| 2026-05-07 07:10 | 56.89026 | -38.30873 | 34327 ft | 442 kts | 283° |
| 2026-05-07 07:10 | 56.89823 | -38.42025 | 34329 ft | 441 kts | 282° |
| 2026-05-07 07:11 | 56.90610 | -38.53191 | 34324 ft | 441 kts | 282° |
| 2026-05-07 07:11 | 56.91381 | -38.64278 | 34322 ft | 442 kts | 282° |
| 2026-05-07 07:12 | 56.92147 | -38.75446 | 34322 ft | 442 kts | 282° |
| 2026-05-07 07:12 | 56.92905 | -38.86637 | 34317 ft | 443 kts | 282° |
| 2026-05-07 07:13 | 56.93653 | -38.97847 | 34315 ft | 442 kts | 282° |
| 2026-05-07 07:13 | 56.94383 | -39.08953 | 34321 ft | 441 kts | 282° |
| 2026-05-07 07:14 | 56.95108 | -39.20107 | 34324 ft | 441 kts | 282° |
| 2026-05-07 07:14 | 56.95822 | -39.31270 | 34319 ft | 440 kts | 282° |
| 2026-05-07 07:15 | 56.96525 | -39.42398 | 34317 ft | 440 kts | 282° |
| 2026-05-07 07:15 | 56.97218 | -39.53545 | 34319 ft | 438 kts | 282° |
| 2026-05-07 07:16 | 56.97895 | -39.64594 | 34322 ft | 438 kts | 282° |
| 2026-05-07 07:16 | 56.98567 | -39.75698 | 34314 ft | 437 kts | 281° |
| 2026-05-07 07:17 | 56.99227 | -39.86794 | 34319 ft | 437 kts | 281° |
| 2026-05-07 07:17 | 56.99875 | -39.97825 | 34317 ft | 437 kts | 281° |
| 2026-05-07 07:18 | 57.00419 | -40.08962 | 34319 ft | 438 kts | 279° |
| 2026-05-07 07:18 | 57.00826 | -40.20159 | 34303 ft | 439 kts | 279° |
| 2026-05-07 07:19 | 57.01219 | -40.31264 | 34306 ft | 439 kts | 279° |
| 2026-05-07 07:19 | 57.01622 | -40.42463 | 34303 ft | 439 kts | 278° |
| 2026-05-07 07:20 | 57.02024 | -40.53650 | 34293 ft | 439 kts | 278° |
| 2026-05-07 07:20 | 57.02420 | -40.64861 | 34304 ft | 440 kts | 278° |
| 2026-05-07 07:21 | 57.02802 | -40.76010 | 34305 ft | 440 kts | 278° |
| 2026-05-07 07:21 | 57.03178 | -40.87270 | 34295 ft | 441 kts | 278° |
| 2026-05-07 07:22 | 57.03544 | -40.98528 | 34292 ft | 441 kts | 278° |
| 2026-05-07 07:22 | 57.03898 | -41.09728 | 34293 ft | 441 kts | 278° |
| 2026-05-07 07:23 | 57.04243 | -41.20979 | 34282 ft | 441 kts | 277° |
| 2026-05-07 07:23 | 57.04579 | -41.32241 | 34287 ft | 442 kts | 277° |
| 2026-05-07 07:24 | 57.04905 | -41.43544 | 34289 ft | 443 kts | 277° |
| 2026-05-07 07:24 | 57.05221 | -41.54841 | 34277 ft | 443 kts | 276° |
| 2026-05-07 07:25 | 57.05675 | -41.71738 | 34281 ft | 443 kts | 276° |
| 2026-05-07 07:26 | 57.05967 | -41.83076 | 34275 ft | 443 kts | 276° |
| 2026-05-07 07:26 | 57.06248 | -41.94404 | 34268 ft | 443 kts | 276° |
| 2026-05-07 07:27 | 57.06517 | -42.05656 | 34264 ft | 443 kts | 276° |
| 2026-05-07 07:27 | 57.06778 | -42.16992 | 34258 ft | 444 kts | 276° |
| 2026-05-07 07:28 | 57.07029 | -42.28356 | 34253 ft | 445 kts | 275° |
| 2026-05-07 07:28 | 57.07271 | -42.39756 | 34257 ft | 446 kts | 275° |
| 2026-05-07 07:29 | 57.07502 | -42.51165 | 34251 ft | 446 kts | 275° |
| 2026-05-07 07:29 | 57.07722 | -42.62510 | 34245 ft | 447 kts | 275° |
| 2026-05-07 07:30 | 57.07933 | -42.73944 | 34243 ft | 447 kts | 275° |
| 2026-05-07 07:30 | 57.08134 | -42.85388 | 34216 ft | 447 kts | 274° |
| 2026-05-07 07:31 | 57.08322 | -42.96738 | 34232 ft | 448 kts | 274° |
| 2026-05-07 07:31 | 57.08503 | -43.08194 | 34231 ft | 448 kts | 274° |
| 2026-05-07 07:32 | 57.08673 | -43.19686 | 34225 ft | 449 kts | 274° |
| 2026-05-07 07:32 | 57.08833 | -43.31167 | 34220 ft | 450 kts | 274° |
| 2026-05-07 07:33 | 57.08982 | -43.42673 | 34215 ft | 450 kts | 274° |
| 2026-05-07 07:33 | 57.09120 | -43.54113 | 34207 ft | 450 kts | 273° |
| 2026-05-07 07:34 | 57.09248 | -43.65608 | 34185 ft | 450 kts | 273° |
| 2026-05-07 07:34 | 57.09366 | -43.77116 | 34208 ft | 450 kts | 273° |
| 2026-05-07 07:35 | 57.09474 | -43.88669 | 34206 ft | 451 kts | 272° |
| 2026-05-07 07:35 | 57.09571 | -44.00240 | 34203 ft | 452 kts | 272° |
| 2026-05-07 07:36 | 57.09657 | -44.11740 | 34203 ft | 453 kts | 272° |
| 2026-05-07 07:36 | 57.09733 | -44.23333 | 34191 ft | 453 kts | 272° |
| 2026-05-07 07:37 | 57.09798 | -44.34936 | 34194 ft | 453 kts | 272° |
| 2026-05-07 07:37 | 57.09853 | -44.46522 | 34189 ft | 453 kts | 272° |
| 2026-05-07 07:38 | 57.09897 | -44.58034 | 34176 ft | 453 kts | 271° |
| 2026-05-07 07:38 | 57.09931 | -44.69625 | 34197 ft | 453 kts | 271° |
| 2026-05-07 07:39 | 57.09953 | -44.81239 | 34183 ft | 453 kts | 271° |
| 2026-05-07 07:39 | 57.09965 | -44.92801 | 34171 ft | 452 kts | 271° |
| 2026-05-07 07:40 | 57.09966 | -45.04296 | 34173 ft | 452 kts | 271° |
| 2026-05-07 07:40 | 57.09957 | -45.15864 | 34161 ft | 451 kts | 271° |
| 2026-05-07 07:41 | 57.09937 | -45.27416 | 34154 ft | 451 kts | 270° |
| 2026-05-07 07:41 | 57.09907 | -45.38959 | 34145 ft | 450 kts | 270° |
| 2026-05-07 07:42 | 57.09865 | -45.50489 | 34149 ft | 450 kts | 270° |
| 2026-05-07 07:42 | 57.09815 | -45.61923 | 34147 ft | 449 kts | 270° |
| 2026-05-07 07:43 | 57.09752 | -45.73437 | 34142 ft | 449 kts | 270° |
| 2026-05-07 07:43 | 57.09679 | -45.84921 | 34132 ft | 448 kts | 270° |
| 2026-05-07 07:44 | 57.09597 | -45.96394 | 34127 ft | 448 kts | 270° |
| 2026-05-07 07:44 | 57.09504 | -46.07792 | 34128 ft | 448 kts | 269° |
| 2026-05-07 07:45 | 57.09401 | -46.19267 | 34099 ft | 448 kts | 269° |
| 2026-05-07 07:45 | 57.09287 | -46.30704 | 34112 ft | 447 kts | 269° |
| 2026-05-07 07:46 | 57.09163 | -46.42164 | 34122 ft | 447 kts | 268° |
| 2026-05-07 07:46 | 57.09028 | -46.53520 | 34107 ft | 446 kts | 268° |
| 2026-05-07 07:47 | 57.08883 | -46.64928 | 34104 ft | 445 kts | 268° |
| 2026-05-07 07:47 | 57.08729 | -46.76306 | 34107 ft | 445 kts | 268° |
| 2026-05-07 07:48 | 57.08564 | -46.87687 | 34095 ft | 444 kts | 268° |
| 2026-05-07 07:48 | 57.08419 | -46.97147 | 34098 ft | 445 kts | 268° |
| 2026-05-07 07:49 | 57.08204 | -47.10373 | 34097 ft | 445 kts | 268° |
| 2026-05-07 07:49 | 57.08041 | -47.19922 | 34113 ft | 446 kts | 268° |
| 2026-05-07 07:50 | 57.07837 | -47.31253 | 34082 ft | 446 kts | 268° |
| 2026-05-07 07:50 | 57.07622 | -47.42643 | 34080 ft | 445 kts | 267° |
| 2026-05-07 07:51 | 57.07397 | -47.53998 | 34065 ft | 444 kts | 267° |
| 2026-05-07 07:51 | 57.07162 | -47.65370 | 34076 ft | 444 kts | 267° |
| 2026-05-07 07:52 | 57.06918 | -47.76658 | 34077 ft | 444 kts | 267° |
| 2026-05-07 07:52 | 57.06663 | -47.88021 | 34053 ft | 444 kts | 266° |
| 2026-05-07 07:53 | 57.06397 | -47.99355 | 34061 ft | 443 kts | 266° |
| 2026-05-07 07:53 | 57.06124 | -48.10598 | 34071 ft | 443 kts | 266° |
| 2026-05-07 07:54 | 57.05839 | -48.21912 | 34052 ft | 442 kts | 266° |
| 2026-05-07 07:54 | 57.05544 | -48.33203 | 34047 ft | 441 kts | 266° |
| 2026-05-07 07:55 | 57.05241 | -48.44391 | 34046 ft | 441 kts | 266° |
| 2026-05-07 07:55 | 57.04927 | -48.55653 | 34043 ft | 441 kts | 266° |
| 2026-05-07 07:56 | 57.04603 | -48.66911 | 34037 ft | 441 kts | 265° |
| 2026-05-07 07:56 | 57.04269 | -48.78148 | 34043 ft | 440 kts | 265° |
| 2026-05-07 07:57 | 57.03928 | -48.89298 | 34065 ft | 439 kts | 265° |
| 2026-05-07 07:57 | 57.03575 | -49.00489 | 34039 ft | 438 kts | 265° |
| 2026-05-07 07:58 | 57.03214 | -49.11636 | 34030 ft | 436 kts | 265° |
| 2026-05-07 07:58 | 57.02843 | -49.22766 | 34025 ft | 435 kts | 265° |
| 2026-05-07 07:59 | 57.02466 | -49.33792 | 34024 ft | 435 kts | 264° |
| 2026-05-07 07:59 | 57.02078 | -49.44870 | 34025 ft | 435 kts | 264° |
| 2026-05-07 08:00 | 57.01679 | -49.55960 | 34022 ft | 435 kts | 264° |
| 2026-05-07 08:00 | 57.01271 | -49.67051 | 34025 ft | 435 kts | 264° |
| 2026-05-07 08:01 | 57.00856 | -49.78085 | 34029 ft | 435 kts | 263° |
| 2026-05-07 08:01 | 57.00427 | -49.89173 | 34016 ft | 434 kts | 263° |
| 2026-05-07 08:02 | 56.99356 | -50.00017 | 34016 ft | 430 kts | 254° |
| 2026-05-07 08:02 | 56.97535 | -50.10377 | 34010 ft | 429 kts | 247° |
| 2026-05-07 08:03 | 56.95118 | -50.20391 | 34015 ft | 429 kts | 246° |
| 2026-05-07 08:03 | 56.92666 | -50.30357 | 34009 ft | 429 kts | 246° |
| 2026-05-07 08:04 | 56.90223 | -50.40307 | 34007 ft | 428 kts | 246° |
| 2026-05-07 08:04 | 56.87798 | -50.50193 | 34008 ft | 428 kts | 246° |
| 2026-05-07 08:05 | 56.85355 | -50.60131 | 34005 ft | 428 kts | 246° |
| 2026-05-07 08:05 | 56.82903 | -50.70061 | 34005 ft | 428 kts | 246° |
| 2026-05-07 08:06 | 56.80445 | -50.79971 | 34005 ft | 428 kts | 245° |
| 2026-05-07 08:06 | 56.78001 | -50.89784 | 34026 ft | 427 kts | 245° |
| 2026-05-07 08:07 | 56.75539 | -50.99616 | 33997 ft | 424 kts | 245° |
| 2026-05-07 08:07 | 56.73090 | -51.09357 | 33993 ft | 421 kts | 245° |
| 2026-05-07 08:08 | 56.70662 | -51.18972 | 33999 ft | 420 kts | 245° |
| 2026-05-07 08:08 | 56.68212 | -51.28632 | 33997 ft | 420 kts | 245° |
| 2026-05-07 08:09 | 56.65756 | -51.38275 | 33994 ft | 421 kts | 245° |
| 2026-05-07 08:09 | 56.63285 | -51.47936 | 33993 ft | 421 kts | 244° |
| 2026-05-07 08:10 | 56.60806 | -51.57584 | 33992 ft | 422 kts | 244° |
| 2026-05-07 08:10 | 56.58329 | -51.67182 | 33991 ft | 422 kts | 244° |
| 2026-05-07 08:11 | 56.55828 | -51.76834 | 33993 ft | 422 kts | 244° |
| 2026-05-07 08:11 | 56.53316 | -51.86482 | 33989 ft | 423 kts | 244° |
| 2026-05-07 08:12 | 56.50816 | -51.96048 | 33982 ft | 423 kts | 244° |
| 2026-05-07 08:12 | 56.48290 | -52.05670 | 33999 ft | 423 kts | 244° |
| 2026-05-07 08:13 | 56.45756 | -52.15284 | 33986 ft | 423 kts | 244° |
| 2026-05-07 08:13 | 56.43213 | -52.24890 | 33977 ft | 423 kts | 244° |
| 2026-05-07 08:14 | 56.40680 | -52.34416 | 33978 ft | 423 kts | 244° |
| 2026-05-07 08:14 | 56.38125 | -52.43986 | 33969 ft | 423 kts | 243° |
| 2026-05-07 08:15 | 56.35563 | -52.53540 | 33964 ft | 423 kts | 243° |
| 2026-05-07 08:15 | 56.32993 | -52.63087 | 33964 ft | 423 kts | 243° |
| 2026-05-07 08:16 | 56.30414 | -52.72624 | 33963 ft | 423 kts | 243° |
| 2026-05-07 08:16 | 56.27842 | -52.82097 | 33959 ft | 423 kts | 243° |
| 2026-05-07 08:17 | 56.25250 | -52.91604 | 33975 ft | 423 kts | 243° |
| 2026-05-07 08:17 | 56.22650 | -53.01100 | 33972 ft | 423 kts | 243° |
| 2026-05-07 08:18 | 56.20056 | -53.10534 | 33974 ft | 423 kts | 243° |
| 2026-05-07 08:18 | 56.17438 | -53.20018 | 33974 ft | 423 kts | 243° |
| 2026-05-07 08:19 | 56.14817 | -53.29472 | 33974 ft | 423 kts | 243° |
| 2026-05-07 08:19 | 56.12187 | -53.38921 | 33973 ft | 423 kts | 243° |
| 2026-05-07 08:20 | 56.09553 | -53.48345 | 33984 ft | 423 kts | 242° |
| 2026-05-07 08:20 | 56.06932 | -53.57687 | 33964 ft | 421 kts | 242° |
| 2026-05-07 08:21 | 56.04304 | -53.67012 | 33956 ft | 419 kts | 242° |
| 2026-05-07 08:21 | 56.01678 | -53.76296 | 33959 ft | 417 kts | 242° |
| 2026-05-07 08:22 | 55.99050 | -53.85548 | 33949 ft | 417 kts | 242° |
| 2026-05-07 08:22 | 55.96414 | -53.94787 | 33951 ft | 417 kts | 242° |
| 2026-05-07 08:23 | 55.93784 | -54.03974 | 33947 ft | 418 kts | 241° |
| 2026-05-07 08:23 | 55.91131 | -54.13205 | 33948 ft | 418 kts | 241° |
| 2026-05-07 08:24 | 55.88482 | -54.22382 | 33941 ft | 419 kts | 241° |
| 2026-05-07 08:24 | 55.85808 | -54.31610 | 33944 ft | 419 kts | 241° |
| 2026-05-07 08:25 | 55.83127 | -54.40828 | 33948 ft | 419 kts | 241° |
| 2026-05-07 08:25 | 55.80434 | -54.50049 | 33939 ft | 420 kts | 241° |
| 2026-05-07 08:26 | 55.76399 | -54.63800 | 33935 ft | 420 kts | 240° |
| 2026-05-07 08:26 | 55.73689 | -54.72991 | 33934 ft | 420 kts | 240° |
| 2026-05-07 08:27 | 55.70970 | -54.82173 | 33930 ft | 420 kts | 240° |
| 2026-05-07 08:27 | 55.68272 | -54.91253 | 33932 ft | 418 kts | 240° |
| 2026-05-07 08:28 | 55.65561 | -55.00338 | 33931 ft | 416 kts | 240° |
| 2026-05-07 08:28 | 55.62850 | -55.09389 | 33925 ft | 416 kts | 240° |
| 2026-05-07 08:29 | 55.60128 | -55.18442 | 33928 ft | 416 kts | 240° |
| 2026-05-07 08:29 | 55.57423 | -55.27402 | 33924 ft | 417 kts | 240° |
| 2026-05-07 08:30 | 55.54684 | -55.36444 | 33926 ft | 417 kts | 239° |
| 2026-05-07 08:30 | 55.51936 | -55.45479 | 33921 ft | 418 kts | 239° |
| 2026-05-07 08:31 | 55.49177 | -55.54516 | 33911 ft | 418 kts | 239° |
| 2026-05-07 08:31 | 55.46428 | -55.63489 | 33913 ft | 418 kts | 239° |
| 2026-05-07 08:32 | 55.43650 | -55.72518 | 33932 ft | 418 kts | 239° |
| 2026-05-07 08:32 | 55.40865 | -55.81536 | 33911 ft | 419 kts | 239° |
| 2026-05-07 08:33 | 55.38093 | -55.90482 | 33906 ft | 419 kts | 239° |
| 2026-05-07 08:33 | 55.35296 | -55.99467 | 33952 ft | 419 kts | 239° |
| 2026-05-07 08:34 | 55.32478 | -56.08490 | 33912 ft | 420 kts | 239° |
| 2026-05-07 08:34 | 55.29683 | -56.17410 | 33903 ft | 420 kts | 239° |
| 2026-05-07 08:35 | 55.26863 | -56.26374 | 33899 ft | 419 kts | 239° |
| 2026-05-07 08:35 | 55.24039 | -56.35316 | 33898 ft | 419 kts | 239° |
| 2026-05-07 08:36 | 55.21210 | -56.44242 | 33893 ft | 419 kts | 239° |
| 2026-05-07 08:36 | 55.18369 | -56.53170 | 33890 ft | 419 kts | 239° |
| 2026-05-07 08:37 | 55.15544 | -56.62015 | 33892 ft | 419 kts | 239° |
| 2026-05-07 08:37 | 55.12687 | -56.70930 | 33885 ft | 420 kts | 239° |
| 2026-05-07 08:38 | 55.09823 | -56.79835 | 33885 ft | 420 kts | 239° |
| 2026-05-07 08:38 | 55.06971 | -56.88673 | 33883 ft | 420 kts | 239° |
| 2026-05-07 08:39 | 55.04090 | -56.97559 | 33879 ft | 420 kts | 238° |
| 2026-05-07 08:39 | 55.00824 | -57.05989 | 33877 ft | 419 kts | 233° |
| 2026-05-07 08:40 | 54.97365 | -57.14180 | 33871 ft | 420 kts | 233° |
| 2026-05-07 08:40 | 54.93913 | -57.22399 | 33918 ft | 421 kts | 233° |
| 2026-05-07 08:41 | 54.90472 | -57.30578 | 33875 ft | 421 kts | 233° |
| 2026-05-07 08:41 | 54.87001 | -57.38800 | 33864 ft | 421 kts | 233° |
| 2026-05-07 08:42 | 54.84113 | -57.45618 | 33867 ft | 421 kts | 233° |
| 2026-05-07 08:42 | 54.80636 | -57.53802 | 33864 ft | 421 kts | 233° |
| 2026-05-07 08:43 | 54.77179 | -57.61911 | 33864 ft | 420 kts | 233° |
| 2026-05-07 08:43 | 54.73694 | -57.70061 | 33861 ft | 420 kts | 233° |
| 2026-05-07 08:44 | 54.70203 | -57.78196 | 33859 ft | 420 kts | 233° |
| 2026-05-07 08:44 | 54.66730 | -57.86263 | 33857 ft | 421 kts | 233° |
| 2026-05-07 08:45 | 54.63227 | -57.94373 | 33858 ft | 420 kts | 233° |
| 2026-05-07 08:45 | 54.59727 | -58.02452 | 33862 ft | 420 kts | 233° |
| 2026-05-07 08:46 | 54.56217 | -58.10526 | 33863 ft | 420 kts | 232° |
| 2026-05-07 08:46 | 54.52695 | -58.18600 | 33862 ft | 421 kts | 232° |
| 2026-05-07 08:47 | 54.49193 | -58.26603 | 33859 ft | 421 kts | 232° |
| 2026-05-07 08:47 | 54.45664 | -58.34643 | 33863 ft | 421 kts | 232° |
| 2026-05-07 08:48 | 54.42130 | -58.42668 | 33856 ft | 421 kts | 232° |
| 2026-05-07 08:48 | 54.38610 | -58.50633 | 33859 ft | 421 kts | 232° |
| 2026-05-07 08:49 | 54.35064 | -58.58633 | 33860 ft | 421 kts | 232° |
| 2026-05-07 08:49 | 54.31507 | -58.66632 | 33850 ft | 421 kts | 232° |
| 2026-05-07 08:50 | 54.27972 | -58.74559 | 33854 ft | 422 kts | 232° |
| 2026-05-07 08:50 | 54.24406 | -58.82526 | 33873 ft | 421 kts | 232° |
| 2026-05-07 08:51 | 54.20831 | -58.90488 | 33855 ft | 421 kts | 232° |
| 2026-05-07 08:51 | 54.17276 | -58.98383 | 33858 ft | 422 kts | 232° |
| 2026-05-07 08:52 | 54.13682 | -59.06336 | 33853 ft | 422 kts | 231° |
| 2026-05-07 08:52 | 54.10096 | -59.14248 | 33851 ft | 421 kts | 231° |
| 2026-05-07 08:53 | 54.06505 | -59.22145 | 33852 ft | 421 kts | 231° |
| 2026-05-07 08:53 | 54.02918 | -59.30009 | 33853 ft | 421 kts | 231° |
| 2026-05-07 08:54 | 53.99350 | -59.37807 | 33855 ft | 420 kts | 231° |
| 2026-05-07 08:54 | 53.95750 | -59.45649 | 33845 ft | 420 kts | 231° |
| 2026-05-07 08:55 | 53.92152 | -59.53463 | 33859 ft | 419 kts | 231° |
| 2026-05-07 08:55 | 53.88554 | -59.61251 | 33859 ft | 419 kts | 231° |
| 2026-05-07 08:56 | 53.84951 | -59.69028 | 33854 ft | 419 kts | 231° |
| 2026-05-07 08:56 | 53.81343 | -59.76791 | 33839 ft | 419 kts | 231° |
| 2026-05-07 08:57 | 53.77751 | -59.84495 | 33847 ft | 419 kts | 231° |
| 2026-05-07 08:57 | 53.74136 | -59.92224 | 33847 ft | 419 kts | 231° |
| 2026-05-07 08:58 | 53.70519 | -59.99935 | 33846 ft | 418 kts | 231° |
| 2026-05-07 08:58 | 53.66904 | -60.07616 | 33846 ft | 418 kts | 231° |
| 2026-05-07 08:59 | 53.63281 | -60.15292 | 33861 ft | 419 kts | 230° |
| 2026-05-07 08:59 | 53.59662 | -60.22935 | 33843 ft | 420 kts | 230° |
| 2026-05-07 09:00 | 53.56005 | -60.30632 | 33838 ft | 420 kts | 230° |
| 2026-05-07 09:00 | 53.52378 | -60.38247 | 33845 ft | 420 kts | 230° |
| 2026-05-07 09:01 | 53.48722 | -60.45899 | 33845 ft | 419 kts | 230° |
| 2026-05-07 09:01 | 53.45065 | -60.53529 | 33840 ft | 420 kts | 230° |
| 2026-05-07 09:02 | 53.41395 | -60.61163 | 33827 ft | 419 kts | 229° |
| 2026-05-07 09:02 | 53.37727 | -60.68769 | 33827 ft | 420 kts | 229° |
| 2026-05-07 09:03 | 53.34049 | -60.76373 | 33832 ft | 420 kts | 229° |
| 2026-05-07 09:03 | 53.30380 | -60.83933 | 33832 ft | 420 kts | 229° |
| 2026-05-07 09:04 | 53.26695 | -60.91506 | 33838 ft | 420 kts | 229° |
| 2026-05-07 09:04 | 53.22992 | -60.99093 | 33828 ft | 420 kts | 229° |
| 2026-05-07 09:05 | 53.19294 | -61.06644 | 33830 ft | 420 kts | 229° |
| 2026-05-07 09:05 | 53.15613 | -61.14141 | 33829 ft | 419 kts | 229° |
| 2026-05-07 09:06 | 53.11908 | -61.21663 | 33827 ft | 419 kts | 229° |
| 2026-05-07 09:06 | 53.08198 | -61.29173 | 33824 ft | 419 kts | 229° |
| 2026-05-07 09:07 | 53.04508 | -61.36620 | 33826 ft | 419 kts | 228° |
| 2026-05-07 09:07 | 53.00788 | -61.44104 | 33818 ft | 420 kts | 228° |
| 2026-05-07 09:08 | 52.97063 | -61.51576 | 33827 ft | 421 kts | 228° |
| 2026-05-07 09:08 | 52.93318 | -61.59067 | 33821 ft | 420 kts | 228° |
| 2026-05-07 09:09 | 52.89589 | -61.66505 | 33811 ft | 419 kts | 228° |
| 2026-05-07 09:09 | 52.85877 | -61.73885 | 33801 ft | 420 kts | 227° |
| 2026-05-07 09:10 | 52.82126 | -61.81322 | 33812 ft | 420 kts | 227° |
| 2026-05-07 09:10 | 52.78374 | -61.88737 | 33800 ft | 420 kts | 227° |
| 2026-05-07 09:11 | 52.74637 | -61.96100 | 33803 ft | 420 kts | 227° |
| 2026-05-07 09:11 | 52.70874 | -62.03494 | 33803 ft | 420 kts | 227° |
| 2026-05-07 09:12 | 52.67112 | -62.10866 | 33801 ft | 420 kts | 227° |
| 2026-05-07 09:12 | 52.63338 | -62.18237 | 33797 ft | 420 kts | 227° |
| 2026-05-07 09:13 | 52.59581 | -62.25555 | 33802 ft | 420 kts | 227° |
| 2026-05-07 09:13 | 52.55804 | -62.32889 | 33793 ft | 420 kts | 227° |
| 2026-05-07 09:14 | 52.52015 | -62.40227 | 33792 ft | 420 kts | 227° |
| 2026-05-07 09:14 | 52.48220 | -62.47554 | 33790 ft | 421 kts | 227° |
| 2026-05-07 09:15 | 52.44439 | -62.54833 | 33787 ft | 421 kts | 227° |
| 2026-05-07 09:15 | 52.40639 | -62.62127 | 33786 ft | 421 kts | 226° |
| 2026-05-07 09:16 | 52.36829 | -62.69419 | 33787 ft | 421 kts | 226° |
| 2026-05-07 09:16 | 52.33013 | -62.76701 | 33830 ft | 421 kts | 226° |
| 2026-05-07 09:17 | 52.29179 | -62.83998 | 33786 ft | 423 kts | 226° |
| 2026-05-07 09:17 | 52.25363 | -62.91238 | 33779 ft | 424 kts | 226° |
| 2026-05-07 09:18 | 52.21501 | -62.98544 | 33766 ft | 424 kts | 226° |
| 2026-05-07 09:18 | 52.17638 | -63.05831 | 33771 ft | 424 kts | 226° |
| 2026-05-07 09:19 | 52.13806 | -63.13040 | 33760 ft | 424 kts | 226° |
| 2026-05-07 09:19 | 52.09942 | -63.20288 | 33770 ft | 424 kts | 226° |
| 2026-05-07 09:20 | 52.06072 | -63.27525 | 33764 ft | 424 kts | 226° |
| 2026-05-07 09:20 | 52.02191 | -63.34761 | 33758 ft | 424 kts | 226° |
| 2026-05-07 09:21 | 51.98304 | -63.41989 | 33761 ft | 424 kts | 225° |
| 2026-05-07 09:21 | 51.94445 | -63.49146 | 33750 ft | 425 kts | 225° |
| 2026-05-07 09:22 | 51.90548 | -63.56350 | 33761 ft | 425 kts | 225° |
| 2026-05-07 09:22 | 51.86641 | -63.63553 | 33763 ft | 426 kts | 225° |
| 2026-05-07 09:23 | 51.82726 | -63.70748 | 33754 ft | 426 kts | 225° |
| 2026-05-07 09:23 | 51.78801 | -63.77944 | 33775 ft | 426 kts | 225° |
| 2026-05-07 09:24 | 51.74874 | -63.85121 | 33760 ft | 426 kts | 225° |
| 2026-05-07 09:24 | 51.70946 | -63.92280 | 33761 ft | 426 kts | 225° |
| 2026-05-07 09:25 | 51.67008 | -63.99439 | 33815 ft | 426 kts | 225° |
| 2026-05-07 09:25 | 51.63066 | -64.06581 | 33772 ft | 426 kts | 224° |
| 2026-05-07 09:26 | 51.59150 | -64.13660 | 33779 ft | 426 kts | 224° |
| 2026-05-07 09:26 | 51.55207 | -64.20766 | 33757 ft | 425 kts | 224° |
| 2026-05-07 09:27 | 51.51254 | -64.27869 | 33762 ft | 425 kts | 224° |
| 2026-05-07 09:28 | 51.45352 | -64.38439 | 33755 ft | 425 kts | 224° |
| 2026-05-07 09:28 | 51.41402 | -64.45486 | 33756 ft | 425 kts | 224° |
| 2026-05-07 09:29 | 51.37458 | -64.52502 | 33755 ft | 426 kts | 223° |
| 2026-05-07 09:29 | 51.33471 | -64.59575 | 33749 ft | 428 kts | 223° |
| 2026-05-07 09:30 | 51.30157 | -64.65442 | 33752 ft | 429 kts | 223° |
| 2026-05-07 09:30 | 51.26153 | -64.72512 | 33747 ft | 429 kts | 223° |
| 2026-05-07 09:31 | 51.21486 | -64.80727 | 33740 ft | 429 kts | 223° |
| 2026-05-07 09:31 | 51.18142 | -64.86597 | 33744 ft | 429 kts | 223° |
| 2026-05-07 09:32 | 51.14113 | -64.93650 | 33750 ft | 429 kts | 223° |
| 2026-05-07 09:32 | 51.10090 | -65.00674 | 33742 ft | 429 kts | 223° |
| 2026-05-07 09:33 | 51.06064 | -65.07683 | 33743 ft | 429 kts | 223° |
| 2026-05-07 09:33 | 51.02029 | -65.14688 | 33735 ft | 429 kts | 222° |
| 2026-05-07 09:34 | 50.97982 | -65.21693 | 33730 ft | 430 kts | 222° |
| 2026-05-07 09:34 | 50.93947 | -65.28656 | 33726 ft | 431 kts | 222° |
| 2026-05-07 09:35 | 50.89887 | -65.35649 | 33717 ft | 431 kts | 222° |
| 2026-05-07 09:35 | 50.85818 | -65.42636 | 33740 ft | 431 kts | 222° |
| 2026-05-07 09:36 | 50.81750 | -65.49602 | 33724 ft | 431 kts | 222° |
| 2026-05-07 09:36 | 50.77674 | -65.56561 | 33738 ft | 431 kts | 222° |
| 2026-05-07 09:37 | 50.73591 | -65.63513 | 33714 ft | 431 kts | 222° |
| 2026-05-07 09:37 | 50.69508 | -65.70447 | 33719 ft | 431 kts | 222° |
| 2026-05-07 09:38 | 50.65422 | -65.77365 | 33715 ft | 432 kts | 221° |
| 2026-05-07 09:38 | 50.61347 | -65.84249 | 33720 ft | 432 kts | 221° |
| 2026-05-07 09:39 | 50.57232 | -65.91179 | 33717 ft | 433 kts | 221° |
| 2026-05-07 09:39 | 50.53114 | -65.98096 | 33717 ft | 433 kts | 221° |
| 2026-05-07 09:40 | 50.48986 | -66.05010 | 33703 ft | 434 kts | 221° |
| 2026-05-07 09:40 | 50.44840 | -66.11934 | 33717 ft | 435 kts | 221° |
| 2026-05-07 09:41 | 50.40699 | -66.18831 | 33720 ft | 437 kts | 221° |
| 2026-05-07 09:41 | 50.36512 | -66.25785 | 33732 ft | 438 kts | 221° |
| 2026-05-07 09:42 | 50.32355 | -66.32676 | 33715 ft | 436 kts | 221° |
| 2026-05-07 09:42 | 50.28183 | -66.39573 | 33708 ft | 435 kts | 221° |
| 2026-05-07 09:43 | 50.24012 | -66.46443 | 33703 ft | 435 kts | 221° |
| 2026-05-07 09:43 | 50.19845 | -66.53289 | 33708 ft | 435 kts | 221° |
| 2026-05-07 09:44 | 50.15701 | -66.60079 | 33711 ft | 435 kts | 221° |
| 2026-05-07 09:44 | 50.11504 | -66.66936 | 33716 ft | 437 kts | 221° |
| 2026-05-07 09:45 | 50.07301 | -66.73784 | 33722 ft | 440 kts | 221° |
| 2026-05-07 09:45 | 50.03048 | -66.80697 | 33726 ft | 443 kts | 221° |
| 2026-05-07 09:46 | 49.98764 | -66.87642 | 33721 ft | 444 kts | 221° |
| 2026-05-07 09:46 | 49.94485 | -66.94560 | 33720 ft | 445 kts | 222° |
| 2026-05-07 09:47 | 49.90203 | -67.01463 | 33720 ft | 448 kts | 222° |
| 2026-05-07 09:47 | 49.85867 | -67.08434 | 33721 ft | 450 kts | 222° |
| 2026-05-07 09:48 | 49.81498 | -67.15440 | 33723 ft | 452 kts | 222° |
| 2026-05-07 09:48 | 49.77127 | -67.22429 | 33719 ft | 452 kts | 222° |
| 2026-05-07 09:49 | 49.72737 | -67.29429 | 33716 ft | 453 kts | 222° |
| 2026-05-07 09:49 | 49.68331 | -67.36435 | 33760 ft | 455 kts | 223° |
| 2026-05-07 09:50 | 49.63922 | -67.43426 | 33723 ft | 458 kts | 223° |
| 2026-05-07 09:50 | 49.59456 | -67.50489 | 33728 ft | 460 kts | 223° |
| 2026-05-07 09:51 | 49.54997 | -67.57520 | 33736 ft | 461 kts | 223° |
| 2026-05-07 09:51 | 49.50490 | -67.64607 | 33736 ft | 462 kts | 223° |
| 2026-05-07 09:52 | 49.45975 | -67.71689 | 33715 ft | 463 kts | 223° |
| 2026-05-07 09:52 | 49.41490 | -67.78703 | 33717 ft | 462 kts | 223° |
| 2026-05-07 09:53 | 49.36975 | -67.85744 | 33731 ft | 462 kts | 224° |
| 2026-05-07 09:53 | 49.32456 | -67.92771 | 33732 ft | 462 kts | 224° |
| 2026-05-07 09:54 | 49.27934 | -67.99784 | 33735 ft | 462 kts | 223° |
| 2026-05-07 09:54 | 49.23417 | -68.06772 | 33717 ft | 462 kts | 223° |
| 2026-05-07 09:55 | 49.18918 | -68.13714 | 33713 ft | 462 kts | 224° |
| 2026-05-07 09:55 | 49.14509 | -68.20877 | 33711 ft | 464 kts | 229° |
| 2026-05-07 09:56 | 49.10804 | -68.28999 | 33715 ft | 467 kts | 237° |
| 2026-05-07 09:56 | 49.07638 | -68.37612 | 33730 ft | 469 kts | 238° |
| 2026-05-07 09:57 | 49.04443 | -68.46293 | 33732 ft | 469 kts | 238° |
| 2026-05-07 09:57 | 49.01230 | -68.54941 | 33729 ft | 469 kts | 238° |
| 2026-05-07 09:58 | 48.98022 | -68.63522 | 33729 ft | 468 kts | 238° |
| 2026-05-07 09:58 | 48.94786 | -68.72138 | 33735 ft | 468 kts | 237° |
| 2026-05-07 09:59 | 48.91543 | -68.80747 | 33731 ft | 468 kts | 237° |
| 2026-05-07 09:59 | 48.88321 | -68.89275 | 33731 ft | 468 kts | 238° |
| 2026-05-07 10:00 | 48.85064 | -68.97865 | 33736 ft | 468 kts | 237° |
| 2026-05-07 10:00 | 48.81809 | -69.06425 | 33739 ft | 468 kts | 238° |
| 2026-05-07 10:01 | 48.78554 | -69.14956 | 33741 ft | 467 kts | 238° |
| 2026-05-07 10:01 | 48.75315 | -69.23418 | 33736 ft | 466 kts | 238° |
| 2026-05-07 10:02 | 48.72055 | -69.31905 | 33736 ft | 466 kts | 238° |
| 2026-05-07 10:02 | 48.68781 | -69.40405 | 33736 ft | 466 kts | 238° |
| 2026-05-07 10:03 | 48.65509 | -69.48870 | 33741 ft | 466 kts | 238° |
| 2026-05-07 10:03 | 48.62249 | -69.57279 | 33743 ft | 465 kts | 238° |
| 2026-05-07 10:04 | 48.58964 | -69.65726 | 33768 ft | 466 kts | 238° |
| 2026-05-07 10:04 | 48.55670 | -69.74167 | 33749 ft | 465 kts | 238° |
| 2026-05-07 10:05 | 48.52403 | -69.82513 | 33754 ft | 464 kts | 238° |
| 2026-05-07 10:05 | 48.49115 | -69.90888 | 33752 ft | 463 kts | 237° |
| 2026-05-07 10:06 | 48.45822 | -69.99248 | 33756 ft | 463 kts | 237° |
| 2026-05-07 10:06 | 48.42527 | -70.07587 | 33745 ft | 463 kts | 238° |
| 2026-05-07 10:07 | 48.39252 | -70.15849 | 33747 ft | 462 kts | 238° |
| 2026-05-07 10:07 | 48.35940 | -70.24180 | 33753 ft | 462 kts | 238° |
| 2026-05-07 10:08 | 48.32648 | -70.32438 | 33782 ft | 462 kts | 237° |
| 2026-05-07 10:08 | 48.29333 | -70.40723 | 33763 ft | 461 kts | 237° |
| 2026-05-07 10:09 | 48.26026 | -70.48962 | 33764 ft | 459 kts | 237° |
| 2026-05-07 10:09 | 48.22751 | -70.57099 | 33763 ft | 457 kts | 237° |
| 2026-05-07 10:10 | 48.19457 | -70.65257 | 33761 ft | 456 kts | 237° |
| 2026-05-07 10:10 | 48.16158 | -70.73403 | 33766 ft | 456 kts | 237° |
| 2026-05-07 10:11 | 48.12861 | -70.81520 | 33772 ft | 456 kts | 237° |
| 2026-05-07 10:11 | 48.09573 | -70.89589 | 33768 ft | 456 kts | 237° |
| 2026-05-07 10:12 | 48.06261 | -70.97693 | 33759 ft | 456 kts | 237° |
| 2026-05-07 10:12 | 48.02943 | -71.05789 | 33744 ft | 456 kts | 237° |
| 2026-05-07 10:13 | 47.99649 | -71.13802 | 33754 ft | 455 kts | 237° |
| 2026-05-07 10:13 | 47.96327 | -71.21858 | 33743 ft | 455 kts | 237° |
| 2026-05-07 10:14 | 47.93007 | -71.29887 | 33745 ft | 454 kts | 237° |
| 2026-05-07 10:14 | 47.89705 | -71.37848 | 33746 ft | 453 kts | 237° |
| 2026-05-07 10:15 | 47.86387 | -71.45825 | 33991 ft | 451 kts | 237° |
| 2026-05-07 10:15 | 47.84735 | -71.49786 | 34370 ft | 448 kts | 237° |
| 2026-05-07 10:15 | 47.83088 | -71.53730 | 34619 ft | 449 kts | 237° |
| 2026-05-07 10:15 | 47.81433 | -71.57689 | 34757 ft | 452 kts | 237° |
| 2026-05-07 10:16 | 47.79754 | -71.61695 | 34822 ft | 456 kts | 237° |
| 2026-05-07 10:16 | 47.78075 | -71.65699 | 34969 ft | 457 kts | 237° |
| 2026-05-07 10:16 | 47.76389 | -71.69713 | 35140 ft | 458 kts | 237° |
| 2026-05-07 10:16 | 47.74722 | -71.73677 | 35332 ft | 458 kts | 237° |
| 2026-05-07 10:17 | 47.73029 | -71.77696 | 35503 ft | 458 kts | 237° |
| 2026-05-07 10:17 | 47.71336 | -71.81710 | 35688 ft | 459 kts | 237° |
| 2026-05-07 10:17 | 47.69633 | -71.85741 | 35853 ft | 459 kts | 237° |
| 2026-05-07 10:17 | 47.67937 | -71.89751 | 36031 ft | 459 kts | 237° |
| 2026-05-07 10:18 | 47.66234 | -71.93770 | 36202 ft | 459 kts | 237° |
| 2026-05-07 10:18 | 47.64531 | -71.97781 | 36372 ft | 459 kts | 237° |
| 2026-05-07 10:18 | 47.62829 | -72.01787 | 36564 ft | 459 kts | 237° |
| 2026-05-07 10:18 | 47.61124 | -72.05794 | 36749 ft | 459 kts | 237° |
| 2026-05-07 10:19 | 47.59439 | -72.09748 | 36902 ft | 459 kts | 237° |
| 2026-05-07 10:19 | 47.57730 | -72.13751 | 37066 ft | 460 kts | 237° |
| 2026-05-07 10:19 | 47.56017 | -72.17759 | 37234 ft | 460 kts | 237° |
| 2026-05-07 10:19 | 47.54301 | -72.21767 | 37372 ft | 461 kts | 237° |
| 2026-05-07 10:20 | 47.52575 | -72.25791 | 37531 ft | 461 kts | 237° |
| 2026-05-07 10:20 | 47.50879 | -72.29742 | 37658 ft | 460 kts | 237° |
| 2026-05-07 10:20 | 47.49723 | -72.32432 | 37705 ft | 461 kts | 237° |
| 2026-05-07 10:21 | 47.45714 | -72.41737 | 37781 ft | 461 kts | 237° |
| 2026-05-07 10:21 | 47.42847 | -72.48373 | 37785 ft | 461 kts | 237° |
| 2026-05-07 10:22 | 47.39390 | -72.56352 | 37792 ft | 461 kts | 237° |
| 2026-05-07 10:22 | 47.35929 | -72.64318 | 37788 ft | 461 kts | 237° |
| 2026-05-07 10:23 | 47.32483 | -72.72226 | 37790 ft | 460 kts | 237° |
| 2026-05-07 10:23 | 47.29016 | -72.80158 | 37789 ft | 460 kts | 237° |
| 2026-05-07 10:24 | 47.25543 | -72.88083 | 37789 ft | 459 kts | 237° |
| 2026-05-07 10:24 | 47.22071 | -72.95983 | 37791 ft | 459 kts | 237° |
| 2026-05-07 10:25 | 47.18616 | -73.03819 | 37787 ft | 458 kts | 237° |
| 2026-05-07 10:25 | 47.15144 | -73.11672 | 37781 ft | 457 kts | 237° |
| 2026-05-07 10:26 | 47.11666 | -73.19518 | 37802 ft | 456 kts | 237° |
| 2026-05-07 10:26 | 47.08216 | -73.27280 | 37798 ft | 456 kts | 237° |
| 2026-05-07 10:27 | 47.04742 | -73.35072 | 37805 ft | 455 kts | 237° |
| 2026-05-07 10:27 | 47.01257 | -73.42867 | 37784 ft | 457 kts | 237° |
| 2026-05-07 10:28 | 46.97789 | -73.50601 | 37788 ft | 457 kts | 237° |
| 2026-05-07 10:28 | 46.94286 | -73.58392 | 37788 ft | 457 kts | 237° |
| 2026-05-07 10:29 | 46.90782 | -73.66164 | 37787 ft | 457 kts | 237° |
| 2026-05-07 10:29 | 46.87286 | -73.73895 | 37785 ft | 458 kts | 237° |
| 2026-05-07 10:30 | 46.82006 | -73.85534 | 37785 ft | 457 kts | 237° |
| 2026-05-07 10:30 | 46.78489 | -73.93256 | 37784 ft | 456 kts | 237° |
| 2026-05-07 10:31 | 46.74967 | -74.00971 | 37789 ft | 457 kts | 237° |
| 2026-05-07 10:31 | 46.71456 | -74.08639 | 37784 ft | 457 kts | 237° |
| 2026-05-07 10:32 | 46.67917 | -74.16347 | 37770 ft | 456 kts | 237° |
| 2026-05-07 10:32 | 46.64387 | -74.24014 | 37783 ft | 455 kts | 237° |
| 2026-05-07 10:33 | 46.60873 | -74.31626 | 37785 ft | 455 kts | 237° |
| 2026-05-07 10:33 | 46.57339 | -74.39260 | 37787 ft | 454 kts | 237° |
| 2026-05-07 10:34 | 46.53805 | -74.46873 | 37789 ft | 454 kts | 237° |
| 2026-05-07 10:34 | 46.50268 | -74.54473 | 37791 ft | 454 kts | 237° |
| 2026-05-07 10:35 | 46.46741 | -74.62028 | 37788 ft | 454 kts | 237° |
| 2026-05-07 10:35 | 46.43179 | -74.69639 | 37790 ft | 455 kts | 237° |
| 2026-05-07 10:36 | 46.39620 | -74.77223 | 37793 ft | 455 kts | 237° |
| 2026-05-07 10:36 | 46.36050 | -74.84811 | 37769 ft | 455 kts | 237° |
| 2026-05-07 10:37 | 46.32483 | -74.92372 | 37790 ft | 455 kts | 237° |
| 2026-05-07 10:37 | 46.28931 | -74.99879 | 37795 ft | 454 kts | 237° |
| 2026-05-07 10:38 | 46.25354 | -75.07421 | 37818 ft | 455 kts | 237° |
| 2026-05-07 10:38 | 46.21763 | -75.14972 | 37805 ft | 456 kts | 237° |
| 2026-05-07 10:39 | 46.18164 | -75.22518 | 37790 ft | 456 kts | 237° |
| 2026-05-07 10:39 | 46.14582 | -75.30008 | 37797 ft | 456 kts | 237° |
| 2026-05-07 10:40 | 46.10977 | -75.37527 | 37805 ft | 456 kts | 237° |
| 2026-05-07 10:40 | 46.07360 | -75.45050 | 37800 ft | 456 kts | 237° |
| 2026-05-07 10:41 | 46.03746 | -75.52549 | 37797 ft | 455 kts | 237° |
| 2026-05-07 10:41 | 46.00129 | -75.60032 | 37803 ft | 455 kts | 237° |
| 2026-05-07 10:42 | 45.96507 | -75.67509 | 37818 ft | 455 kts | 237° |
| 2026-05-07 10:42 | 45.92905 | -75.74926 | 37809 ft | 455 kts | 237° |
| 2026-05-07 10:43 | 45.89274 | -75.82389 | 37818 ft | 455 kts | 237° |
| 2026-05-07 10:43 | 45.85711 | -75.89914 | 37824 ft | 455 kts | 238° |
| 2026-05-07 10:44 | 45.82171 | -75.97467 | 37831 ft | 456 kts | 238° |
| 2026-05-07 10:44 | 45.78639 | -76.04966 | 37846 ft | 456 kts | 237° |
| 2026-05-07 10:45 | 45.75074 | -76.12495 | 37851 ft | 456 kts | 237° |
| 2026-05-07 10:45 | 45.71503 | -76.20007 | 37842 ft | 456 kts | 237° |
| 2026-05-07 10:46 | 45.67943 | -76.27478 | 37854 ft | 456 kts | 237° |
| 2026-05-07 10:46 | 45.64360 | -76.34977 | 37871 ft | 456 kts | 237° |
| 2026-05-07 10:47 | 45.60765 | -76.42480 | 37862 ft | 456 kts | 237° |
| 2026-05-07 10:47 | 45.57169 | -76.49967 | 37881 ft | 456 kts | 237° |
| 2026-05-07 10:48 | 45.53597 | -76.57385 | 37871 ft | 456 kts | 237° |
| 2026-05-07 10:48 | 45.49990 | -76.64853 | 37882 ft | 455 kts | 237° |
| 2026-05-07 10:49 | 45.46395 | -76.72282 | 37893 ft | 456 kts | 237° |
| 2026-05-07 10:49 | 45.42778 | -76.79733 | 37885 ft | 456 kts | 237° |
| 2026-05-07 10:50 | 45.39179 | -76.87129 | 37883 ft | 456 kts | 237° |
| 2026-05-07 10:50 | 45.35550 | -76.94566 | 37892 ft | 456 kts | 237° |
| 2026-05-07 10:51 | 45.31957 | -77.01911 | 37900 ft | 455 kts | 237° |
| 2026-05-07 10:51 | 45.28330 | -77.09305 | 37900 ft | 455 kts | 237° |
| 2026-05-07 10:52 | 45.24709 | -77.16670 | 37909 ft | 455 kts | 237° |
| 2026-05-07 10:52 | 45.21086 | -77.24016 | 37915 ft | 454 kts | 237° |
| 2026-05-07 10:53 | 45.17496 | -77.31280 | 37898 ft | 443 kts | 237° |
| 2026-05-07 10:53 | 45.14000 | -77.38329 | 37919 ft | 438 kts | 237° |
| 2026-05-07 10:54 | 45.10468 | -77.45451 | 37927 ft | 445 kts | 237° |
| 2026-05-07 10:54 | 45.06904 | -77.52611 | 37941 ft | 451 kts | 237° |
| 2026-05-07 10:55 | 45.03266 | -77.59899 | 37918 ft | 454 kts | 237° |
| 2026-05-07 10:55 | 44.99610 | -77.67201 | 37913 ft | 453 kts | 237° |
| 2026-05-07 10:56 | 44.97810 | -77.70787 | 37927 ft | 441 kts | 237° |
| 2026-05-07 10:56 | 44.96063 | -77.74260 | 37896 ft | 426 kts | 237° |
| 2026-05-07 10:56 | 44.94373 | -77.77620 | 37366 ft | 422 kts | 238° |
| 2026-05-07 10:56 | 44.92674 | -77.81001 | 36768 ft | 420 kts | 238° |
| 2026-05-07 10:57 | 44.90984 | -77.84361 | 36065 ft | 419 kts | 238° |
| 2026-05-07 10:57 | 44.89294 | -77.87719 | 35335 ft | 420 kts | 238° |
| 2026-05-07 10:57 | 44.87596 | -77.91082 | 34561 ft | 422 kts | 238° |
| 2026-05-07 10:57 | 44.85879 | -77.94460 | 33678 ft | 425 kts | 237° |
| 2026-05-07 10:58 | 44.84107 | -77.97809 | 32715 ft | 427 kts | 236° |
| 2026-05-07 10:58 | 44.82326 | -78.01098 | 31812 ft | 427 kts | 236° |
| 2026-05-07 10:58 | 44.80513 | -78.04418 | 30958 ft | 426 kts | 236° |
| 2026-05-07 10:58 | 44.78712 | -78.07715 | 30304 ft | 421 kts | 236° |
| 2026-05-07 10:59 | 44.76937 | -78.10969 | 29548 ft | 416 kts | 236° |
| 2026-05-07 10:59 | 44.75205 | -78.14150 | 28837 ft | 410 kts | 236° |
| 2026-05-07 10:59 | 44.73484 | -78.17313 | 28204 ft | 404 kts | 236° |
| 2026-05-07 10:59 | 44.71790 | -78.20430 | 27558 ft | 398 kts | 237° |
| 2026-05-07 11:00 | 44.70120 | -78.23502 | 26940 ft | 392 kts | 237° |
| 2026-05-07 11:00 | 44.68470 | -78.26536 | 26326 ft | 387 kts | 237° |
| 2026-05-07 11:00 | 44.66841 | -78.29529 | 25701 ft | 382 kts | 237° |
| 2026-05-07 11:00 | 44.65235 | -78.32475 | 25122 ft | 378 kts | 237° |
| 2026-05-07 11:01 | 44.63640 | -78.35400 | 24543 ft | 374 kts | 237° |
| 2026-05-07 11:01 | 44.62083 | -78.38251 | 23974 ft | 370 kts | 237° |
| 2026-05-07 11:01 | 44.60521 | -78.41109 | 23369 ft | 367 kts | 237° |
| 2026-05-07 11:01 | 44.58972 | -78.43940 | 22704 ft | 363 kts | 237° |
| 2026-05-07 11:02 | 44.57442 | -78.46733 | 22133 ft | 358 kts | 237° |
| 2026-05-07 11:02 | 44.55932 | -78.49486 | 21577 ft | 353 kts | 237° |
| 2026-05-07 11:02 | 44.54441 | -78.52203 | 21021 ft | 350 kts | 237° |
| 2026-05-07 11:02 | 44.52962 | -78.54896 | 20482 ft | 347 kts | 237° |
| 2026-05-07 11:03 | 44.51493 | -78.57569 | 19937 ft | 345 kts | 237° |
| 2026-05-07 11:03 | 44.50049 | -78.60194 | 19415 ft | 343 kts | 237° |
| 2026-05-07 11:03 | 44.48591 | -78.62841 | 18890 ft | 342 kts | 237° |
| 2026-05-07 11:03 | 44.47142 | -78.65472 | 18360 ft | 341 kts | 237° |
| 2026-05-07 11:04 | 44.45699 | -78.68087 | 17778 ft | 340 kts | 236° |
| 2026-05-07 11:04 | 44.44240 | -78.70729 | 17216 ft | 339 kts | 236° |
| 2026-05-07 11:04 | 44.42804 | -78.73325 | 16666 ft | 337 kts | 237° |
| 2026-05-07 11:04 | 44.41371 | -78.75915 | 16154 ft | 335 kts | 236° |
| 2026-05-07 11:05 | 44.39948 | -78.78484 | 15632 ft | 334 kts | 236° |
| 2026-05-07 11:05 | 44.38525 | -78.81052 | 15124 ft | 333 kts | 236° |
| 2026-05-07 11:05 | 44.37125 | -78.83576 | 14639 ft | 332 kts | 236° |
| 2026-05-07 11:05 | 44.35709 | -78.86127 | 14133 ft | 332 kts | 236° |
| 2026-05-07 11:06 | 44.34291 | -78.88679 | 13601 ft | 332 kts | 236° |
| 2026-05-07 11:06 | 44.32867 | -78.91238 | 13033 ft | 332 kts | 236° |
| 2026-05-07 11:06 | 44.31453 | -78.93778 | 12537 ft | 330 kts | 235° |
| 2026-05-07 11:06 | 44.30046 | -78.96304 | 12008 ft | 329 kts | 235° |
| 2026-05-07 11:07 | 44.28640 | -78.98827 | 11487 ft | 328 kts | 235° |
| 2026-05-07 11:07 | 44.27253 | -79.01312 | 11001 ft | 327 kts | 235° |
| 2026-05-07 11:07 | 44.25875 | -79.03775 | 10826 ft | 316 kts | 235° |
| 2026-05-07 11:07 | 44.24512 | -79.06167 | 10685 ft | 306 kts | 233° |
| 2026-05-07 11:08 | 44.23135 | -79.08314 | 10568 ft | 296 kts | 231° |
| 2026-05-07 11:08 | 44.21745 | -79.10381 | 10420 ft | 287 kts | 230° |
| 2026-05-07 11:08 | 44.20403 | -79.12371 | 10317 ft | 277 kts | 231° |
| 2026-05-07 11:08 | 44.19109 | -79.14299 | 10213 ft | 268 kts | 231° |
| 2026-05-07 11:09 | 44.18271 | -79.15553 | 10132 ft | 262 kts | 231° |
| 2026-05-07 11:09 | 44.17052 | -79.17380 | 10055 ft | 252 kts | 231° |
| 2026-05-07 11:09 | 44.15882 | -79.19138 | 10017 ft | 243 kts | 231° |
| 2026-05-07 11:09 | 44.14735 | -79.20868 | 9977 ft | 244 kts | 231° |
| 2026-05-07 11:10 | 44.13567 | -79.22632 | 9767 ft | 247 kts | 231° |
| 2026-05-07 11:10 | 44.12408 | -79.24378 | 9602 ft | 243 kts | 231° |
| 2026-05-07 11:10 | 44.11264 | -79.26101 | 9296 ft | 243 kts | 231° |
| 2026-05-07 11:10 | 44.10110 | -79.27837 | 8817 ft | 247 kts | 231° |
| 2026-05-07 11:11 | 44.08945 | -79.29590 | 8427 ft | 249 kts | 231° |
| 2026-05-07 11:11 | 44.07751 | -79.31312 | 8103 ft | 245 kts | 223° |
| 2026-05-07 11:11 | 44.06184 | -79.32359 | 7620 ft | 259 kts | 196° |
| 2026-05-07 11:11 | 44.04344 | -79.32541 | 7483 ft | 271 kts | 186° |
| 2026-05-07 11:12 | 44.02347 | -79.32607 | 7544 ft | 307 kts | 186° |
| 2026-05-07 11:12 | 44.00070 | -79.32696 | 7588 ft | 336 kts | 185° |
| 2026-05-07 11:12 | 43.97770 | -79.32772 | 7483 ft | 324 kts | 185° |
| 2026-05-07 11:12 | 43.95560 | -79.32848 | 7343 ft | 304 kts | 186° |
| 2026-05-07 11:13 | 43.93560 | -79.32918 | 7100 ft | 277 kts | 186° |
| 2026-05-07 11:13 | 43.91701 | -79.32997 | 6968 ft | 261 kts | 189° |
| 2026-05-07 11:13 | 43.89995 | -79.33728 | 6612 ft | 256 kts | 217° |
| 2026-05-07 11:13 | 43.88688 | -79.35357 | 6312 ft | 251 kts | 230° |
| 2026-05-07 11:14 | 43.87501 | -79.37119 | 5954 ft | 250 kts | 230° |
| 2026-05-07 11:14 | 43.86305 | -79.38876 | 5596 ft | 251 kts | 229° |
| 2026-05-07 11:14 | 43.85109 | -79.40626 | 5249 ft | 251 kts | 229° |
| 2026-05-07 11:14 | 43.83901 | -79.42394 | 4902 ft | 252 kts | 229° |
| 2026-05-07 11:15 | 43.82692 | -79.44159 | 4535 ft | 252 kts | 229° |
| 2026-05-07 11:15 | 43.81514 | -79.45878 | 4171 ft | 243 kts | 229° |
| 2026-05-07 11:15 | 43.80383 | -79.47526 | 3831 ft | 227 kts | 229° |
| 2026-05-07 11:15 | 43.79331 | -79.49060 | 3535 ft | 212 kts | 229° |
| 2026-05-07 11:16 | 43.78350 | -79.50491 | 3246 ft | 197 kts | 229° |
| 2026-05-07 11:16 | 43.77453 | -79.51799 | 3013 ft | 182 kts | 229° |
| 2026-05-07 11:16 | 43.76621 | -79.53012 | 2792 ft | 165 kts | 229° |
| 2026-05-07 11:16 | 43.75862 | -79.54117 | 2522 ft | 149 kts | 229° |
| 2026-05-07 11:17 | 43.75189 | -79.55098 | 2340 ft | 136 kts | 230° |
| 2026-05-07 11:17 | 43.74526 | -79.56067 | 2152 ft | 140 kts | 229° |
| 2026-05-07 11:17 | 43.73855 | -79.57043 | 1952 ft | 139 kts | 229° |
| 2026-05-07 11:17 | 43.73193 | -79.58006 | 1768 ft | 138 kts | 229° |
| 2026-05-07 11:18 | 43.72543 | -79.58953 | 1569 ft | 138 kts | 229° |
| 2026-05-07 11:18 | 43.71863 | -79.59941 | 1327 ft | 139 kts | 228° |
| 2026-05-07 11:18 | 43.71198 | -79.60891 | 1099 ft | 140 kts | 227° |
| 2026-05-07 11:18 | 43.70518 | -79.61877 | 934 ft | 140 kts | 230° |
| 2026-05-07 11:19 | 43.69851 | -79.62872 | 722 ft | 141 kts | 228° |
| 2026-05-07 11:19 | 43.69171 | -79.63858 | 582 ft | 138 kts | 228° |
| 2026-05-07 11:19 | 43.68573 | -79.64729 | 572 ft | 109 kts | 226° |
| 2026-05-07 11:19 | 43.68177 | -79.65303 | 574 ft | 46 kts | 226° |
| 2026-05-07 11:20 | 43.67976 | -79.65462 | 569 ft | 19 kts | 195° |
| 2026-05-07 11:20 | 43.67867 | -79.65465 | 574 ft | 16 kts | 148° |
| 2026-05-07 11:20 | 43.67879 | -79.65337 | 574 ft | 17 kts | 48° |
| 2026-05-07 11:20 | 43.67957 | -79.65218 | 573 ft | 17 kts | 47° |
| 2026-05-07 11:21 | 43.68053 | -79.65079 | 577 ft | 21 kts | 46° |
| 2026-05-07 11:21 | 43.68156 | -79.64930 | 579 ft | 21 kts | 46° |
| 2026-05-07 11:21 | 43.68215 | -79.64842 | 581 ft | 11 kts | 57° |
| 2026-05-07 11:21 | 43.68206 | -79.64746 | 580 ft | 12 kts | 128° |
| 2026-05-07 11:22 | 43.68053 | -79.64552 | 580 ft | 47 kts | 136° |
| 2026-05-07 11:22 | 43.67787 | -79.64208 | 574 ft | 53 kts | 136° |
| 2026-05-07 11:22 | 43.67533 | -79.63873 | 577 ft | 48 kts | 136° |
| 2026-05-07 11:22 | 43.67295 | -79.63562 | 574 ft | 46 kts | 135° |
| 2026-05-07 11:23 | 43.67189 | -79.63254 | 572 ft | 35 kts | 106° |
| 2026-05-07 11:23 | 43.67079 | -79.62964 | 578 ft | 33 kts | 135° |
| 2026-05-07 11:23 | 43.66926 | -79.62752 | 580 ft | 18 kts | 112° |
| 2026-05-07 11:23 | 43.67025 | -79.62539 | 573 ft | 34 kts | 46° |
| 2026-05-07 11:24 | 43.67186 | -79.62306 | 579 ft | 34 kts | 46° |
| 2026-05-07 11:24 | 43.67348 | -79.62071 | 579 ft | 33 kts | 46° |
| 2026-05-07 11:24 | 43.67498 | -79.61853 | 582 ft | 31 kts | 46° |
| 2026-05-07 11:24 | 43.67626 | -79.61684 | 575 ft | 16 kts | 42° |
| 2026-05-07 11:25 | 43.67619 | -79.61530 | 569 ft | 27 kts | 136° |
| 2026-05-07 11:25 | 43.67498 | -79.61313 | 574 ft | 23 kts | 110° |
| 2026-05-07 11:25 | 43.67492 | -79.61202 | 571 ft | 8 kts | 50° |
| 2026-05-07 11:25 | 43.67555 | -79.61176 | 575 ft | 10 kts | 8° |
| 2026-05-07 11:26 | 43.67573 | -79.61173 | 571 ft | 0 kts | 7° |